<?xml version="1.0"?>
<gpx xmlns:xsi="http://www.w3.org/2001/XMLSchema-instance" xmlns:xsd="http://www.w3.org/2001/XMLSchema" version="1.1" creator="Quo v2" xmlns="http://www.topografix.com/GPX/1/1">
  <metadata>
    <desc>GPX file generated with Quo.</desc>
    <link href="http://www.mapyx.com">
      <text>Mapyx</text>
    </link>
    <time>2022-02-08T12:25:29.9453432+00:00</time>
  </metadata>
  <wpt lat="52.8332979701429" lon="1.18368137220712">
    <ele>30.0000592274771</ele>
    <time>2022-02-08T12:23:24.6451598+00:00</time>
    <name>CP 1</name>
    <desc />
  </wpt>
  <wpt lat="52.9050796890327" lon="1.0878017675427">
    <ele>63</ele>
    <time>2022-02-08T12:23:40.4501802+00:00</time>
    <name>CP 2</name>
    <desc />
  </wpt>
  <wpt lat="52.9343622130632" lon="1.20449645182434">
    <ele>47.9999681654689</ele>
    <time>2022-02-08T12:23:52.6678017+00:00</time>
    <name>CP 3</name>
    <desc />
  </wpt>
  <wpt lat="52.8807764417839" lon="1.35366454585333">
    <ele>46</ele>
    <time>2022-02-08T12:24:05.8915774+00:00</time>
    <name>CP 4</name>
    <desc />
  </wpt>
  <wpt lat="52.8147014510859" lon="1.33669576561791">
    <ele>29.9999673148808</ele>
    <time>2022-02-08T12:24:19.5795508+00:00</time>
    <name>CP 5</name>
    <desc />
  </wpt>
  <trk>
    <name>Track from 'Winter Poppyline 2022'</name>
    <desc />
    <extensions>
      <drawing v="True" pv="True" pw="4" pc="255|255|255" pt="0" lv="True" lw="4" lc="0|0|255" lt="0" ls="0" lcs="3" fc="255|255|255" ft="120" fs="-1" fsc="0|0|0" xmlns="" />
    </extensions>
    <trkseg>
      <trkpt lat="52.7961499617" lon="1.2593930215">
        <ele>104.07</ele>
        <time>2022-01-29T06:56:54</time>
        <name>WPT 1</name>
        <desc />
      </trkpt>
      <trkpt lat="52.7958161943" lon="1.259569712">
        <ele>105.27</ele>
        <time>2022-01-29T07:04:43</time>
        <name>WPT 2</name>
        <desc />
      </trkpt>
      <trkpt lat="52.795064589" lon="1.2598282099">
        <ele>104.43</ele>
        <time>2022-01-29T07:05:55</time>
        <name>WPT 3</name>
        <desc />
      </trkpt>
      <trkpt lat="52.7942291647" lon="1.2594973762">
        <ele>104.59</ele>
        <time>2022-01-29T07:07:01</time>
        <name>WPT 4</name>
        <desc />
      </trkpt>
      <trkpt lat="52.7934151143" lon="1.2588994112">
        <ele>102.35</ele>
        <time>2022-01-29T07:08:13</time>
        <name>WPT 5</name>
        <desc />
      </trkpt>
      <trkpt lat="52.7924715634" lon="1.258569248">
        <ele>98.42</ele>
        <time>2022-01-29T07:09:18</time>
        <name>WPT 6</name>
        <desc />
      </trkpt>
      <trkpt lat="52.7923362795" lon="1.2572298199">
        <ele>101.79</ele>
        <time>2022-01-29T07:10:22</time>
        <name>WPT 7</name>
        <desc />
      </trkpt>
      <trkpt lat="52.7925101202" lon="1.2557715364">
        <ele>103.54</ele>
        <time>2022-01-29T07:11:23</time>
        <name>WPT 8</name>
        <desc />
      </trkpt>
      <trkpt lat="52.7919352893" lon="1.254874086">
        <ele>106.36</ele>
        <time>2022-01-29T07:12:27</time>
        <name>WPT 9</name>
        <desc />
      </trkpt>
      <trkpt lat="52.7913723607" lon="1.2542887777">
        <ele>110.66</ele>
        <time>2022-01-29T07:13:30</time>
        <name>WPT 10</name>
        <desc />
      </trkpt>
      <trkpt lat="52.7910765633" lon="1.2532861345">
        <ele>112.56</ele>
        <time>2022-01-29T07:14:32</time>
        <name>WPT 11</name>
        <desc />
      </trkpt>
      <trkpt lat="52.79105125" lon="1.2519640569">
        <ele>111.99</ele>
        <time>2022-01-29T07:16:29</time>
        <name>WPT 12</name>
        <desc />
      </trkpt>
      <trkpt lat="52.7908784151" lon="1.2502566632">
        <ele>109.85</ele>
        <time>2022-01-29T07:17:40</time>
        <name>WPT 13</name>
        <desc />
      </trkpt>
      <trkpt lat="52.7906694543" lon="1.2484119739">
        <ele>110.32</ele>
        <time>2022-01-29T07:18:54</time>
        <name>WPT 14</name>
        <desc />
      </trkpt>
      <trkpt lat="52.7905512694" lon="1.246632915">
        <ele>110.69</ele>
        <time>2022-01-29T07:20:05</time>
        <name>WPT 15</name>
        <desc />
      </trkpt>
      <trkpt lat="52.7904765029" lon="1.2449412793">
        <ele>111.2</ele>
        <time>2022-01-29T07:21:11</time>
        <name>WPT 16</name>
        <desc />
      </trkpt>
      <trkpt lat="52.7904071845" lon="1.243346706">
        <ele>111.06</ele>
        <time>2022-01-29T07:22:12</time>
        <name>WPT 17</name>
        <desc />
      </trkpt>
      <trkpt lat="52.7904406283" lon="1.2415625341">
        <ele>112.25</ele>
        <time>2022-01-29T07:23:23</time>
        <name>WPT 18</name>
        <desc />
      </trkpt>
      <trkpt lat="52.7906764951" lon="1.2396569923">
        <ele>113.71</ele>
        <time>2022-01-29T07:24:45</time>
        <name>WPT 19</name>
        <desc />
      </trkpt>
      <trkpt lat="52.7910821792" lon="1.2376698107">
        <ele>114.48</ele>
        <time>2022-01-29T07:26:10</time>
        <name>WPT 20</name>
        <desc />
      </trkpt>
      <trkpt lat="52.7914969996" lon="1.2356475927">
        <ele>114.39</ele>
        <time>2022-01-29T07:27:33</time>
        <name>WPT 21</name>
        <desc />
      </trkpt>
      <trkpt lat="52.7918023523" lon="1.2338608224">
        <ele>113.8</ele>
        <time>2022-01-29T07:28:46</time>
        <name>WPT 22</name>
        <desc />
      </trkpt>
      <trkpt lat="52.7920278255" lon="1.2320225872">
        <ele>113.43</ele>
        <time>2022-01-29T07:29:59</time>
        <name>WPT 23</name>
        <desc />
      </trkpt>
      <trkpt lat="52.7923056856" lon="1.2301783171">
        <ele>113.46</ele>
        <time>2022-01-29T07:31:12</time>
        <name>WPT 24</name>
        <desc />
      </trkpt>
      <trkpt lat="52.792494949" lon="1.2283452787">
        <ele>114.02</ele>
        <time>2022-01-29T07:32:21</time>
        <name>WPT 25</name>
        <desc />
      </trkpt>
      <trkpt lat="52.7924436517" lon="1.2266595941">
        <ele>115</ele>
        <time>2022-01-29T07:33:27</time>
        <name>WPT 26</name>
        <desc />
      </trkpt>
      <trkpt lat="52.7926290594" lon="1.2251021527">
        <ele>115.21</ele>
        <time>2022-01-29T07:34:36</time>
        <name>WPT 27</name>
        <desc />
      </trkpt>
      <trkpt lat="52.7932391781" lon="1.2238068972">
        <ele>115.55</ele>
        <time>2022-01-29T07:35:47</time>
        <name>WPT 28</name>
        <desc />
      </trkpt>
      <trkpt lat="52.7940601017" lon="1.2230271287">
        <ele>114.25</ele>
        <time>2022-01-29T07:36:46</time>
        <name>WPT 29</name>
        <desc />
      </trkpt>
      <trkpt lat="52.7948452346" lon="1.2220731005">
        <ele>112.81</ele>
        <time>2022-01-29T07:37:48</time>
        <name>WPT 30</name>
        <desc />
      </trkpt>
      <trkpt lat="52.795184534" lon="1.220511971">
        <ele>110.61</ele>
        <time>2022-01-29T07:38:54</time>
        <name>WPT 31</name>
        <desc />
      </trkpt>
      <trkpt lat="52.7960074693" lon="1.219636146">
        <ele>109.47</ele>
        <time>2022-01-29T07:39:56</time>
        <name>WPT 32</name>
        <desc />
      </trkpt>
      <trkpt lat="52.7966338489" lon="1.2200099789">
        <ele>110.01</ele>
        <time>2022-01-29T07:40:53</time>
        <name>WPT 33</name>
        <desc />
      </trkpt>
      <trkpt lat="52.7971609868" lon="1.2212033104">
        <ele>107.48</ele>
        <time>2022-01-29T07:41:51</time>
        <name>WPT 34</name>
        <desc />
      </trkpt>
      <trkpt lat="52.7977265138" lon="1.2223910261">
        <ele>105.3</ele>
        <time>2022-01-29T07:42:49</time>
        <name>WPT 35</name>
        <desc />
      </trkpt>
      <trkpt lat="52.7984668035" lon="1.2234485708">
        <ele>110.79</ele>
        <time>2022-01-29T07:43:53</time>
        <name>WPT 36</name>
        <desc />
      </trkpt>
      <trkpt lat="52.7992228512" lon="1.2242322788">
        <ele>109.57</ele>
        <time>2022-01-29T07:44:50</time>
        <name>WPT 37</name>
        <desc />
      </trkpt>
      <trkpt lat="52.8000078164" lon="1.2249414716">
        <ele>109.44</ele>
        <time>2022-01-29T07:45:46</time>
        <name>WPT 38</name>
        <desc />
      </trkpt>
      <trkpt lat="52.8008039296" lon="1.2245033495">
        <ele>107.03</ele>
        <time>2022-01-29T07:46:44</time>
        <name>WPT 39</name>
        <desc />
      </trkpt>
      <trkpt lat="52.8017052356" lon="1.2244279124">
        <ele>104.3</ele>
        <time>2022-01-29T07:47:43</time>
        <name>WPT 40</name>
        <desc />
      </trkpt>
      <trkpt lat="52.8025870118" lon="1.2246036809">
        <ele>102.4</ele>
        <time>2022-01-29T07:48:41</time>
        <name>WPT 41</name>
        <desc />
      </trkpt>
      <trkpt lat="52.8034677822" lon="1.2248758413">
        <ele>101.92</ele>
        <time>2022-01-29T07:49:38</time>
        <name>WPT 42</name>
        <desc />
      </trkpt>
      <trkpt lat="52.8040156234" lon="1.2241766229">
        <ele>99.35</ele>
        <time>2022-01-29T07:50:35</time>
        <name>WPT 43</name>
        <desc />
      </trkpt>
      <trkpt lat="52.804015791" lon="1.2226015795">
        <ele>99.59</ele>
        <time>2022-01-29T07:51:38</time>
        <name>WPT 44</name>
        <desc />
      </trkpt>
      <trkpt lat="52.8042936511" lon="1.2210313138">
        <ele>103.52</ele>
        <time>2022-01-29T07:52:41</time>
        <name>WPT 45</name>
        <desc />
      </trkpt>
      <trkpt lat="52.8046741057" lon="1.2195445318">
        <ele>105.45</ele>
        <time>2022-01-29T07:53:45</time>
        <name>WPT 46</name>
        <desc />
      </trkpt>
      <trkpt lat="52.8055459913" lon="1.2194999401">
        <ele>107.34</ele>
        <time>2022-01-29T07:54:41</time>
        <name>WPT 47</name>
        <desc />
      </trkpt>
      <trkpt lat="52.8064421844" lon="1.2194561865">
        <ele>104.79</ele>
        <time>2022-01-29T07:55:39</time>
        <name>WPT 48</name>
        <desc />
      </trkpt>
      <trkpt lat="52.807359416" lon="1.2194732856">
        <ele>99.81</ele>
        <time>2022-01-29T07:56:37</time>
        <name>WPT 49</name>
        <desc />
      </trkpt>
      <trkpt lat="52.8081147932" lon="1.2188560423">
        <ele>101.24</ele>
        <time>2022-01-29T07:57:36</time>
        <name>WPT 50</name>
        <desc />
      </trkpt>
      <trkpt lat="52.8089078888" lon="1.2181258108">
        <ele>102.59</ele>
        <time>2022-01-29T07:58:38</time>
        <name>WPT 51</name>
        <desc />
      </trkpt>
      <trkpt lat="52.8097222745" lon="1.2169246841">
        <ele>103.99</ele>
        <time>2022-01-29T07:59:56</time>
        <name>WPT 52</name>
        <desc />
      </trkpt>
      <trkpt lat="52.8101635817" lon="1.2149866205">
        <ele>105.05</ele>
        <time>2022-01-29T08:01:18</time>
        <name>WPT 53</name>
        <desc />
      </trkpt>
      <trkpt lat="52.8101107758" lon="1.2133078929">
        <ele>107.61</ele>
        <time>2022-01-29T08:02:35</time>
        <name>WPT 54</name>
        <desc />
      </trkpt>
      <trkpt lat="52.8106343094" lon="1.2124075927">
        <ele>111.45</ele>
        <time>2022-01-29T08:03:54</time>
        <name>WPT 55</name>
        <desc />
      </trkpt>
      <trkpt lat="52.8109272569" lon="1.2104155496">
        <ele>115.23</ele>
        <time>2022-01-29T08:05:22</time>
        <name>WPT 56</name>
        <desc />
      </trkpt>
      <trkpt lat="52.811274603" lon="1.2084823474">
        <ele>118.69</ele>
        <time>2022-01-29T08:07:00</time>
        <name>WPT 57</name>
        <desc />
      </trkpt>
      <trkpt lat="52.812114805" lon="1.2070073839">
        <ele>121.68</ele>
        <time>2022-01-29T08:08:27</time>
        <name>WPT 58</name>
        <desc />
      </trkpt>
      <trkpt lat="52.8127538413" lon="1.2052341923">
        <ele>123.26</ele>
        <time>2022-01-29T08:09:41</time>
        <name>WPT 59</name>
        <desc />
      </trkpt>
      <trkpt lat="52.8133802209" lon="1.2037437223">
        <ele>124.48</ele>
        <time>2022-01-29T08:10:45</time>
        <name>WPT 60</name>
        <desc />
      </trkpt>
      <trkpt lat="52.8135493677" lon="1.2023125123">
        <ele>124.9</ele>
        <time>2022-01-29T08:11:46</time>
        <name>WPT 61</name>
        <desc />
      </trkpt>
      <trkpt lat="52.8140612505" lon="1.2013060972">
        <ele>124.23</ele>
        <time>2022-01-29T08:12:54</time>
        <name>WPT 62</name>
        <desc />
      </trkpt>
      <trkpt lat="52.8151302785" lon="1.2007782049">
        <ele>124.64</ele>
        <time>2022-01-29T08:14:17</time>
        <name>WPT 63</name>
        <desc />
      </trkpt>
      <trkpt lat="52.8157751821" lon="1.1987084616">
        <ele>127.14</ele>
        <time>2022-01-29T08:15:47</time>
        <name>WPT 64</name>
        <desc />
      </trkpt>
      <trkpt lat="52.815107815" lon="1.1973499227">
        <ele>126.75</ele>
        <time>2022-01-29T08:17:10</time>
        <name>WPT 65</name>
        <desc />
      </trkpt>
      <trkpt lat="52.8153570928" lon="1.1960794777">
        <ele>122.13</ele>
        <time>2022-01-29T08:18:33</time>
        <name>WPT 66</name>
        <desc />
      </trkpt>
      <trkpt lat="52.8163476661" lon="1.195404483">
        <ele>118.66</ele>
        <time>2022-01-29T08:19:57</time>
        <name>WPT 67</name>
        <desc />
      </trkpt>
      <trkpt lat="52.8174520656" lon="1.1946311686">
        <ele>114.48</ele>
        <time>2022-01-29T08:21:26</time>
        <name>WPT 68</name>
        <desc />
      </trkpt>
      <trkpt lat="52.8186248615" lon="1.1940625403">
        <ele>109.61</ele>
        <time>2022-01-29T08:22:48</time>
        <name>WPT 69</name>
        <desc />
      </trkpt>
      <trkpt lat="52.8199606854" lon="1.1957328022">
        <ele>104.99</ele>
        <time>2022-01-29T08:25:03</time>
        <name>WPT 70</name>
        <desc />
      </trkpt>
      <trkpt lat="52.8210949246" lon="1.1965977307">
        <ele>103.97</ele>
        <time>2022-01-29T08:26:11</time>
        <name>WPT 71</name>
        <desc />
      </trkpt>
      <trkpt lat="52.8219734319" lon="1.1970235314">
        <ele>101.64</ele>
        <time>2022-01-29T08:27:10</time>
        <name>WPT 72</name>
        <desc />
      </trkpt>
      <trkpt lat="52.822856633" lon="1.1975743063">
        <ele>98.75</ele>
        <time>2022-01-29T08:28:17</time>
        <name>WPT 73</name>
        <desc />
      </trkpt>
      <trkpt lat="52.823743606" lon="1.1972865555">
        <ele>97.59</ele>
        <time>2022-01-29T08:29:37</time>
        <name>WPT 74</name>
        <desc />
      </trkpt>
      <trkpt lat="52.8243144974" lon="1.1959472112">
        <ele>96.76</ele>
        <time>2022-01-29T08:30:55</time>
        <name>WPT 75</name>
        <desc />
      </trkpt>
      <trkpt lat="52.8251384385" lon="1.1958862748">
        <ele>95.91</ele>
        <time>2022-01-29T08:32:18</time>
        <name>WPT 76</name>
        <desc />
      </trkpt>
      <trkpt lat="52.825989956" lon="1.1955393478">
        <ele>97.47</ele>
        <time>2022-01-29T08:33:19</time>
        <name>WPT 77</name>
        <desc />
      </trkpt>
      <trkpt lat="52.8268394619" lon="1.1950756609">
        <ele>97.6</ele>
        <time>2022-01-29T08:34:21</time>
        <name>WPT 78</name>
        <desc />
      </trkpt>
      <trkpt lat="52.8276660014" lon="1.1945280712">
        <ele>97.7</ele>
        <time>2022-01-29T08:35:22</time>
        <name>WPT 79</name>
        <desc />
      </trkpt>
      <trkpt lat="52.8284362145" lon="1.1937130149">
        <ele>95.35</ele>
        <time>2022-01-29T08:36:25</time>
        <name>WPT 80</name>
        <desc />
      </trkpt>
      <trkpt lat="52.8292822838" lon="1.1932390183">
        <ele>97.21</ele>
        <time>2022-01-29T08:37:24</time>
        <name>WPT 81</name>
        <desc />
      </trkpt>
      <trkpt lat="52.8301323764" lon="1.1929314025">
        <ele>99.01</ele>
        <time>2022-01-29T08:38:29</time>
        <name>WPT 82</name>
        <desc />
      </trkpt>
      <trkpt lat="52.831002837" lon="1.1925761774">
        <ele>100.38</ele>
        <time>2022-01-29T08:39:33</time>
        <name>WPT 83</name>
        <desc />
      </trkpt>
      <trkpt lat="52.8317676857" lon="1.1933737155">
        <ele>105.42</ele>
        <time>2022-01-29T08:40:54</time>
        <name>WPT 84</name>
        <desc />
      </trkpt>
      <trkpt lat="52.8322804067" lon="1.1928790994">
        <ele>104.79</ele>
        <time>2022-01-29T08:42:13</time>
        <name>WPT 85</name>
        <desc />
      </trkpt>
      <trkpt lat="52.8322212305" lon="1.1912188958">
        <ele>107.39</ele>
        <time>2022-01-29T08:43:19</time>
        <name>WPT 86</name>
        <desc />
      </trkpt>
      <trkpt lat="52.8320296202" lon="1.1897181161">
        <ele>103.81</ele>
        <time>2022-01-29T08:44:21</time>
        <name>WPT 87</name>
        <desc />
      </trkpt>
      <trkpt lat="52.83204454" lon="1.1881835572">
        <ele>103.86</ele>
        <time>2022-01-29T08:46:18</time>
        <name>WPT 88</name>
        <desc />
      </trkpt>
      <trkpt lat="52.8317712899" lon="1.1865395308">
        <ele>105.84</ele>
        <time>2022-01-29T08:47:36</time>
        <name>WPT 89</name>
        <desc />
      </trkpt>
      <trkpt lat="52.8316443879" lon="1.1850237474">
        <ele>104.23</ele>
        <time>2022-01-29T08:48:39</time>
        <name>WPT 90</name>
        <desc />
      </trkpt>
      <trkpt lat="52.8321715258" lon="1.1839154083">
        <ele>104.13</ele>
        <time>2022-01-29T08:49:40</time>
        <name>WPT 91</name>
        <desc />
      </trkpt>
      <trkpt lat="52.8330042679" lon="1.1832855083">
        <ele>108.29</ele>
        <time>2022-01-29T08:50:45</time>
        <name>WPT 92</name>
        <desc />
      </trkpt>
      <trkpt lat="52.832974093" lon="1.1818314157">
        <ele>104.56</ele>
        <time>2022-01-29T08:52:00</time>
        <name>WPT 93</name>
        <desc />
      </trkpt>
      <trkpt lat="52.8327243961" lon="1.1802462302">
        <ele>102.99</ele>
        <time>2022-01-29T08:53:06</time>
        <name>WPT 94</name>
        <desc />
      </trkpt>
      <trkpt lat="52.8322866932" lon="1.178705804">
        <ele>107.22</ele>
        <time>2022-01-29T08:54:11</time>
        <name>WPT 95</name>
        <desc />
      </trkpt>
      <trkpt lat="52.8320204001" lon="1.1772312596">
        <ele>110.22</ele>
        <time>2022-01-29T08:55:10</time>
        <name>WPT 96</name>
        <desc />
      </trkpt>
      <trkpt lat="52.831688812" lon="1.1757648457">
        <ele>110.13</ele>
        <time>2022-01-29T08:56:16</time>
        <name>WPT 97</name>
        <desc />
      </trkpt>
      <trkpt lat="52.8313181642" lon="1.1741864495">
        <ele>104.83</ele>
        <time>2022-01-29T08:57:17</time>
        <name>WPT 98</name>
        <desc />
      </trkpt>
      <trkpt lat="52.8311623447" lon="1.1726152617">
        <ele>103.37</ele>
        <time>2022-01-29T08:58:24</time>
        <name>WPT 99</name>
        <desc />
      </trkpt>
      <trkpt lat="52.8311139811" lon="1.1707984842">
        <ele>102.82</ele>
        <time>2022-01-29T08:59:23</time>
        <name>WPT 100</name>
        <desc />
      </trkpt>
      <trkpt lat="52.8309836425" lon="1.1691722274">
        <ele>103.78</ele>
        <time>2022-01-29T09:00:31</time>
        <name>WPT 101</name>
        <desc />
      </trkpt>
      <trkpt lat="52.8309179284" lon="1.1674450524">
        <ele>102.99</ele>
        <time>2022-01-29T09:02:04</time>
        <name>WPT 102</name>
        <desc />
      </trkpt>
      <trkpt lat="52.8305590991" lon="1.1657941528">
        <ele>106.95</ele>
        <time>2022-01-29T09:03:36</time>
        <name>WPT 103</name>
        <desc />
      </trkpt>
      <trkpt lat="52.8306830674" lon="1.1643543094">
        <ele>110.13</ele>
        <time>2022-01-29T09:04:39</time>
        <name>WPT 104</name>
        <desc />
      </trkpt>
      <trkpt lat="52.8308559861" lon="1.16296174">
        <ele>113.62</ele>
        <time>2022-01-29T09:05:44</time>
        <name>WPT 105</name>
        <desc />
      </trkpt>
      <trkpt lat="52.8309722431" lon="1.1615457851">
        <ele>117.88</ele>
        <time>2022-01-29T09:06:46</time>
        <name>WPT 106</name>
        <desc />
      </trkpt>
      <trkpt lat="52.8314010613" lon="1.1602813751">
        <ele>122.98</ele>
        <time>2022-01-29T09:07:51</time>
        <name>WPT 107</name>
        <desc />
      </trkpt>
      <trkpt lat="52.8315803502" lon="1.1588784959">
        <ele>125.91</ele>
        <time>2022-01-29T09:08:51</time>
        <name>WPT 108</name>
        <desc />
      </trkpt>
      <trkpt lat="52.8314127959" lon="1.1575239804">
        <ele>128.69</ele>
        <time>2022-01-29T09:09:52</time>
        <name>WPT 109</name>
        <desc />
      </trkpt>
      <trkpt lat="52.8310708143" lon="1.1562503502">
        <ele>128.96</ele>
        <time>2022-01-29T09:10:48</time>
        <name>WPT 110</name>
        <desc />
      </trkpt>
      <trkpt lat="52.8309112228" lon="1.1548949964">
        <ele>128.16</ele>
        <time>2022-01-29T09:11:45</time>
        <name>WPT 111</name>
        <desc />
      </trkpt>
      <trkpt lat="52.8309184313" lon="1.1534712464">
        <ele>127.65</ele>
        <time>2022-01-29T09:12:46</time>
        <name>WPT 112</name>
        <desc />
      </trkpt>
      <trkpt lat="52.8315539472" lon="1.1526847724">
        <ele>127.77</ele>
        <time>2022-01-29T09:13:49</time>
        <name>WPT 113</name>
        <desc />
      </trkpt>
      <trkpt lat="52.8324117512" lon="1.152796587">
        <ele>130.28</ele>
        <time>2022-01-29T09:14:49</time>
        <name>WPT 114</name>
        <desc />
      </trkpt>
      <trkpt lat="52.8332935274" lon="1.1524336506">
        <ele>131.6</ele>
        <time>2022-01-29T09:15:52</time>
        <name>WPT 115</name>
        <desc />
      </trkpt>
      <trkpt lat="52.8340784088" lon="1.1514623556">
        <ele>130.58</ele>
        <time>2022-01-29T09:16:58</time>
        <name>WPT 116</name>
        <desc />
      </trkpt>
      <trkpt lat="52.8350279946" lon="1.1510435957">
        <ele>131.08</ele>
        <time>2022-01-29T09:18:04</time>
        <name>WPT 117</name>
        <desc />
      </trkpt>
      <trkpt lat="52.8359234333" lon="1.1503338162">
        <ele>133.96</ele>
        <time>2022-01-29T09:19:13</time>
        <name>WPT 118</name>
        <desc />
      </trkpt>
      <trkpt lat="52.8362949193" lon="1.1489748582">
        <ele>135.11</ele>
        <time>2022-01-29T09:20:13</time>
        <name>WPT 119</name>
        <desc />
      </trkpt>
      <trkpt lat="52.8365139384" lon="1.1478754878">
        <ele>134.79</ele>
        <time>2022-01-29T09:21:17</time>
        <name>WPT 120</name>
        <desc />
      </trkpt>
      <trkpt lat="52.8372707404" lon="1.1486534961">
        <ele>134.28</ele>
        <time>2022-01-29T09:22:21</time>
        <name>WPT 121</name>
        <desc />
      </trkpt>
      <trkpt lat="52.8380040731" lon="1.1493833084">
        <ele>134.14</ele>
        <time>2022-01-29T09:23:19</time>
        <name>WPT 122</name>
        <desc />
      </trkpt>
      <trkpt lat="52.8387927264" lon="1.1499632522">
        <ele>131.29</ele>
        <time>2022-01-29T09:24:19</time>
        <name>WPT 123</name>
        <desc />
      </trkpt>
      <trkpt lat="52.8396378737" lon="1.1504035536">
        <ele>128.29</ele>
        <time>2022-01-29T09:25:20</time>
        <name>WPT 124</name>
        <desc />
      </trkpt>
      <trkpt lat="52.8403091803" lon="1.1513119843">
        <ele>126.84</ele>
        <time>2022-01-29T09:26:19</time>
        <name>WPT 125</name>
        <desc />
      </trkpt>
      <trkpt lat="52.841065228" lon="1.1521336623">
        <ele>127.88</ele>
        <time>2022-01-29T09:27:22</time>
        <name>WPT 126</name>
        <desc />
      </trkpt>
      <trkpt lat="52.8417515382" lon="1.1531501357">
        <ele>130.79</ele>
        <time>2022-01-29T09:28:24</time>
        <name>WPT 127</name>
        <desc />
      </trkpt>
      <trkpt lat="52.8424484096" lon="1.1540643498">
        <ele>133.27</ele>
        <time>2022-01-29T09:29:24</time>
        <name>WPT 128</name>
        <desc />
      </trkpt>
      <trkpt lat="52.8432732727" lon="1.1545624025">
        <ele>134.67</ele>
        <time>2022-01-29T09:30:24</time>
        <name>WPT 129</name>
        <desc />
      </trkpt>
      <trkpt lat="52.8441706393" lon="1.1545511708">
        <ele>136.25</ele>
        <time>2022-01-29T09:31:26</time>
        <name>WPT 130</name>
        <desc />
      </trkpt>
      <trkpt lat="52.84512165" lon="1.154433405">
        <ele>133.38</ele>
        <time>2022-01-29T09:32:30</time>
        <name>WPT 131</name>
        <desc />
      </trkpt>
      <trkpt lat="52.8460770193" lon="1.1542511825">
        <ele>131.17</ele>
        <time>2022-01-29T09:33:33</time>
        <name>WPT 132</name>
        <desc />
      </trkpt>
      <trkpt lat="52.8469998669" lon="1.1539134756">
        <ele>128.8</ele>
        <time>2022-01-29T09:34:42</time>
        <name>WPT 133</name>
        <desc />
      </trkpt>
      <trkpt lat="52.8481454216" lon="1.15321761">
        <ele>122.59</ele>
        <time>2022-01-29T09:36:49</time>
        <name>WPT 134</name>
        <desc />
      </trkpt>
      <trkpt lat="52.8491407726" lon="1.1518886592">
        <ele>125.29</ele>
        <time>2022-01-29T09:41:09</time>
        <name>WPT 135</name>
        <desc />
      </trkpt>
      <trkpt lat="52.8500850778" lon="1.1522103567">
        <ele>133.97</ele>
        <time>2022-01-29T09:42:18</time>
        <name>WPT 136</name>
        <desc />
      </trkpt>
      <trkpt lat="52.8500951361" lon="1.1537254695">
        <ele>135.71</ele>
        <time>2022-01-29T09:43:20</time>
        <name>WPT 137</name>
        <desc />
      </trkpt>
      <trkpt lat="52.8501207009" lon="1.1551533267">
        <ele>136.2</ele>
        <time>2022-01-29T09:44:22</time>
        <name>WPT 138</name>
        <desc />
      </trkpt>
      <trkpt lat="52.8509902395" lon="1.1549918912">
        <ele>139.27</ele>
        <time>2022-01-29T09:45:22</time>
        <name>WPT 139</name>
        <desc />
      </trkpt>
      <trkpt lat="52.851865897" lon="1.1548416037">
        <ele>139.69</ele>
        <time>2022-01-29T09:46:22</time>
        <name>WPT 140</name>
        <desc />
      </trkpt>
      <trkpt lat="52.8527439013" lon="1.1548531707">
        <ele>137.06</ele>
        <time>2022-01-29T09:47:21</time>
        <name>WPT 141</name>
        <desc />
      </trkpt>
      <trkpt lat="52.853604136" lon="1.1549745407">
        <ele>136.92</ele>
        <time>2022-01-29T09:48:19</time>
        <name>WPT 142</name>
        <desc />
      </trkpt>
      <trkpt lat="52.8544826433" lon="1.1551132612">
        <ele>134.16</ele>
        <time>2022-01-29T09:49:18</time>
        <name>WPT 143</name>
        <desc />
      </trkpt>
      <trkpt lat="52.8553534392" lon="1.1552401632">
        <ele>128.46</ele>
        <time>2022-01-29T09:50:16</time>
        <name>WPT 144</name>
        <desc />
      </trkpt>
      <trkpt lat="52.8562104888" lon="1.1555527244">
        <ele>127.85</ele>
        <time>2022-01-29T09:51:14</time>
        <name>WPT 145</name>
        <desc />
      </trkpt>
      <trkpt lat="52.8570483439" lon="1.155895628">
        <ele>130.2</ele>
        <time>2022-01-29T09:52:14</time>
        <name>WPT 146</name>
        <desc />
      </trkpt>
      <trkpt lat="52.8578192275" lon="1.15523329">
        <ele>134.93</ele>
        <time>2022-01-29T09:53:16</time>
        <name>WPT 147</name>
        <desc />
      </trkpt>
      <trkpt lat="52.8586050309" lon="1.1543868855">
        <ele>138.71</ele>
        <time>2022-01-29T09:54:22</time>
        <name>WPT 148</name>
        <desc />
      </trkpt>
      <trkpt lat="52.8595814388" lon="1.1537001561">
        <ele>142.66</ele>
        <time>2022-01-29T09:55:30</time>
        <name>WPT 149</name>
        <desc />
      </trkpt>
      <trkpt lat="52.86050722" lon="1.1535336077">
        <ele>143.72</ele>
        <time>2022-01-29T09:56:29</time>
        <name>WPT 150</name>
        <desc />
      </trkpt>
      <trkpt lat="52.8610513732" lon="1.1527583655">
        <ele>142.56</ele>
        <time>2022-01-29T09:57:45</time>
        <name>WPT 151</name>
        <desc />
      </trkpt>
      <trkpt lat="52.8621371649" lon="1.1513617728">
        <ele>140.74</ele>
        <time>2022-01-29T09:59:24</time>
        <name>WPT 152</name>
        <desc />
      </trkpt>
      <trkpt lat="52.8632160835" lon="1.1508698389">
        <ele>137.87</ele>
        <time>2022-01-29T10:00:39</time>
        <name>WPT 153</name>
        <desc />
      </trkpt>
      <trkpt lat="52.8642529249" lon="1.150543699">
        <ele>136.41</ele>
        <time>2022-01-29T10:01:41</time>
        <name>WPT 154</name>
        <desc />
      </trkpt>
      <trkpt lat="52.8651651274" lon="1.1501731351">
        <ele>137.97</ele>
        <time>2022-01-29T10:02:43</time>
        <name>WPT 155</name>
        <desc />
      </trkpt>
      <trkpt lat="52.8660700377" lon="1.1498921737">
        <ele>140.11</ele>
        <time>2022-01-29T10:03:47</time>
        <name>WPT 156</name>
        <desc />
      </trkpt>
      <trkpt lat="52.8671060409" lon="1.149741048">
        <ele>142.05</ele>
        <time>2022-01-29T10:05:01</time>
        <name>WPT 157</name>
        <desc />
      </trkpt>
      <trkpt lat="52.8681432176" lon="1.1497309059">
        <ele>143.7</ele>
        <time>2022-01-29T10:06:05</time>
        <name>WPT 158</name>
        <desc />
      </trkpt>
      <trkpt lat="52.8689839225" lon="1.1491694022">
        <ele>144.65</ele>
        <time>2022-01-29T10:07:09</time>
        <name>WPT 159</name>
        <desc />
      </trkpt>
      <trkpt lat="52.8696874157" lon="1.1480167229">
        <ele>147.21</ele>
        <time>2022-01-29T10:08:14</time>
        <name>WPT 160</name>
        <desc />
      </trkpt>
      <trkpt lat="52.8703418747" lon="1.1468192004">
        <ele>148.39</ele>
        <time>2022-01-29T10:09:28</time>
        <name>WPT 161</name>
        <desc />
      </trkpt>
      <trkpt lat="52.8714484535" lon="1.1475413013">
        <ele>160.59</ele>
        <time>2022-01-29T10:11:22</time>
        <name>WPT 162</name>
        <desc />
      </trkpt>
      <trkpt lat="52.8724993765" lon="1.1492610164">
        <ele>167.32</ele>
        <time>2022-01-29T10:13:17</time>
        <name>WPT 163</name>
        <desc />
      </trkpt>
      <trkpt lat="52.8734176978" lon="1.1499661021">
        <ele>169.09</ele>
        <time>2022-01-29T10:14:39</time>
        <name>WPT 164</name>
        <desc />
      </trkpt>
      <trkpt lat="52.8743092809" lon="1.149288509">
        <ele>168.65</ele>
        <time>2022-01-29T10:15:40</time>
        <name>WPT 165</name>
        <desc />
      </trkpt>
      <trkpt lat="52.8750691004" lon="1.1484208144">
        <ele>170.69</ele>
        <time>2022-01-29T10:16:45</time>
        <name>WPT 166</name>
        <desc />
      </trkpt>
      <trkpt lat="52.8758209571" lon="1.1474135611">
        <ele>166.41</ele>
        <time>2022-01-29T10:17:54</time>
        <name>WPT 167</name>
        <desc />
      </trkpt>
      <trkpt lat="52.8765169904" lon="1.1459168047">
        <ele>170.02</ele>
        <time>2022-01-29T10:19:11</time>
        <name>WPT 168</name>
        <desc />
      </trkpt>
      <trkpt lat="52.8770902287" lon="1.1444040388">
        <ele>176.63</ele>
        <time>2022-01-29T10:20:27</time>
        <name>WPT 169</name>
        <desc />
      </trkpt>
      <trkpt lat="52.8777891956" lon="1.1429865751">
        <ele>177.16</ele>
        <time>2022-01-29T10:21:56</time>
        <name>WPT 170</name>
        <desc />
      </trkpt>
      <trkpt lat="52.8788328264" lon="1.1430427339">
        <ele>176.75</ele>
        <time>2022-01-29T10:23:05</time>
        <name>WPT 171</name>
        <desc />
      </trkpt>
      <trkpt lat="52.8797757905" lon="1.1429989804">
        <ele>178.53</ele>
        <time>2022-01-29T10:24:08</time>
        <name>WPT 172</name>
        <desc />
      </trkpt>
      <trkpt lat="52.8807059303" lon="1.1426951364">
        <ele>176.87</ele>
        <time>2022-01-29T10:25:17</time>
        <name>WPT 173</name>
        <desc />
      </trkpt>
      <trkpt lat="52.8820570093" lon="1.1430575699">
        <ele>178.15</ele>
        <time>2022-01-29T10:26:53</time>
        <name>WPT 174</name>
        <desc />
      </trkpt>
      <trkpt lat="52.8830875643" lon="1.1428179312">
        <ele>176.2</ele>
        <time>2022-01-29T10:27:58</time>
        <name>WPT 175</name>
        <desc />
      </trkpt>
      <trkpt lat="52.8839918878" lon="1.1425787117">
        <ele>175.78</ele>
        <time>2022-01-29T10:29:01</time>
        <name>WPT 176</name>
        <desc />
      </trkpt>
      <trkpt lat="52.8848916013" lon="1.1423134245">
        <ele>177.11</ele>
        <time>2022-01-29T10:30:05</time>
        <name>WPT 177</name>
        <desc />
      </trkpt>
      <trkpt lat="52.8852791805" lon="1.1413606536">
        <ele>176.49</ele>
        <time>2022-01-29T10:31:10</time>
        <name>WPT 178</name>
        <desc />
      </trkpt>
      <trkpt lat="52.8853589762" lon="1.1398975085">
        <ele>176.9</ele>
        <time>2022-01-29T10:32:15</time>
        <name>WPT 179</name>
        <desc />
      </trkpt>
      <trkpt lat="52.8854174819" lon="1.1384478584">
        <ele>178.14</ele>
        <time>2022-01-29T10:33:24</time>
        <name>WPT 180</name>
        <desc />
      </trkpt>
      <trkpt lat="52.8855621535" lon="1.1370089371">
        <ele>179.2</ele>
        <time>2022-01-29T10:34:27</time>
        <name>WPT 181</name>
        <desc />
      </trkpt>
      <trkpt lat="52.8857806697" lon="1.135618547">
        <ele>178.69</ele>
        <time>2022-01-29T10:35:30</time>
        <name>WPT 182</name>
        <desc />
      </trkpt>
      <trkpt lat="52.8860109206" lon="1.1342274025">
        <ele>175.03</ele>
        <time>2022-01-29T10:36:33</time>
        <name>WPT 183</name>
        <desc />
      </trkpt>
      <trkpt lat="52.8861664049" lon="1.1329411156">
        <ele>171.65</ele>
        <time>2022-01-29T10:37:42</time>
        <name>WPT 184</name>
        <desc />
      </trkpt>
      <trkpt lat="52.8865609411" lon="1.1318345368">
        <ele>166.03</ele>
        <time>2022-01-29T10:39:03</time>
        <name>WPT 185</name>
        <desc />
      </trkpt>
      <trkpt lat="52.8866201174" lon="1.130228648">
        <ele>162.6</ele>
        <time>2022-01-29T10:40:10</time>
        <name>WPT 186</name>
        <desc />
      </trkpt>
      <trkpt lat="52.8866847418" lon="1.1283999681">
        <ele>159.78</ele>
        <time>2022-01-29T10:41:26</time>
        <name>WPT 187</name>
        <desc />
      </trkpt>
      <trkpt lat="52.8868442494" lon="1.126871109">
        <ele>158.23</ele>
        <time>2022-01-29T10:42:31</time>
        <name>WPT 188</name>
        <desc />
      </trkpt>
      <trkpt lat="52.8870597482" lon="1.1251723487">
        <ele>155.46</ele>
        <time>2022-01-29T10:43:45</time>
        <name>WPT 189</name>
        <desc />
      </trkpt>
      <trkpt lat="52.8870325908" lon="1.1236329284">
        <ele>160.25</ele>
        <time>2022-01-29T10:44:50</time>
        <name>WPT 190</name>
        <desc />
      </trkpt>
      <trkpt lat="52.8869827185" lon="1.1221809313">
        <ele>161.24</ele>
        <time>2022-01-29T10:45:52</time>
        <name>WPT 191</name>
        <desc />
      </trkpt>
      <trkpt lat="52.8869211953" lon="1.1207321193">
        <ele>163.18</ele>
        <time>2022-01-29T10:46:57</time>
        <name>WPT 192</name>
        <desc />
      </trkpt>
      <trkpt lat="52.8873990476" lon="1.1198995449">
        <ele>162.36</ele>
        <time>2022-01-29T10:48:03</time>
        <name>WPT 193</name>
        <desc />
      </trkpt>
      <trkpt lat="52.88745353" lon="1.1183982622">
        <ele>162.08</ele>
        <time>2022-01-29T10:49:07</time>
        <name>WPT 194</name>
        <desc />
      </trkpt>
      <trkpt lat="52.887522513" lon="1.1169225443">
        <ele>159.62</ele>
        <time>2022-01-29T10:50:11</time>
        <name>WPT 195</name>
        <desc />
      </trkpt>
      <trkpt lat="52.8876129538" lon="1.1154114548">
        <ele>160.85</ele>
        <time>2022-01-29T10:51:18</time>
        <name>WPT 196</name>
        <desc />
      </trkpt>
      <trkpt lat="52.8876983654" lon="1.1139064841">
        <ele>161.78</ele>
        <time>2022-01-29T10:52:27</time>
        <name>WPT 197</name>
        <desc />
      </trkpt>
      <trkpt lat="52.8875478264" lon="1.1128082033">
        <ele>161.52</ele>
        <time>2022-01-29T10:53:31</time>
        <name>WPT 198</name>
        <desc />
      </trkpt>
      <trkpt lat="52.8878181428" lon="1.1114130355">
        <ele>162.74</ele>
        <time>2022-01-29T10:54:33</time>
        <name>WPT 199</name>
        <desc />
      </trkpt>
      <trkpt lat="52.8880804963" lon="1.1099752877">
        <ele>158.7</ele>
        <time>2022-01-29T10:55:32</time>
        <name>WPT 200</name>
        <desc />
      </trkpt>
      <trkpt lat="52.8883364797" lon="1.1085641105">
        <ele>157.48</ele>
        <time>2022-01-29T10:56:33</time>
        <name>WPT 201</name>
        <desc />
      </trkpt>
      <trkpt lat="52.8885957319" lon="1.1071301345">
        <ele>155.62</ele>
        <time>2022-01-29T10:57:33</time>
        <name>WPT 202</name>
        <desc />
      </trkpt>
      <trkpt lat="52.8888576664" lon="1.1057048757">
        <ele>153.77</ele>
        <time>2022-01-29T10:58:35</time>
        <name>WPT 203</name>
        <desc />
      </trkpt>
      <trkpt lat="52.889101496" lon="1.1038011778">
        <ele>133.68</ele>
        <time>2022-01-29T11:00:06</time>
        <name>WPT 204</name>
        <desc />
      </trkpt>
      <trkpt lat="52.888241848" lon="1.1032105889">
        <ele>132.71</ele>
        <time>2022-01-29T11:01:15</time>
        <name>WPT 205</name>
        <desc />
      </trkpt>
      <trkpt lat="52.887405334" lon="1.1025814433">
        <ele>132.47</ele>
        <time>2022-01-29T11:02:24</time>
        <name>WPT 206</name>
        <desc />
      </trkpt>
      <trkpt lat="52.8873626702" lon="1.1010744609">
        <ele>133.45</ele>
        <time>2022-01-29T11:04:01</time>
        <name>WPT 207</name>
        <desc />
      </trkpt>
      <trkpt lat="52.8873394523" lon="1.0991261713">
        <ele>144.03</ele>
        <time>2022-01-29T11:05:45</time>
        <name>WPT 208</name>
        <desc />
      </trkpt>
      <trkpt lat="52.8876725491" lon="1.09748994">
        <ele>155.44</ele>
        <time>2022-01-29T11:07:25</time>
        <name>WPT 209</name>
        <desc />
      </trkpt>
      <trkpt lat="52.8882681672" lon="1.096351007">
        <ele>156.39</ele>
        <time>2022-01-29T11:08:29</time>
        <name>WPT 210</name>
        <desc />
      </trkpt>
      <trkpt lat="52.8891764302" lon="1.0960164852">
        <ele>157.25</ele>
        <time>2022-01-29T11:10:00</time>
        <name>WPT 211</name>
        <desc />
      </trkpt>
      <trkpt lat="52.8904806543" lon="1.0955056921">
        <ele>157.38</ele>
        <time>2022-01-29T11:11:33</time>
        <name>WPT 212</name>
        <desc />
      </trkpt>
      <trkpt lat="52.8916101158" lon="1.0951854195">
        <ele>157.94</ele>
        <time>2022-01-29T11:13:27</time>
        <name>WPT 213</name>
        <desc />
      </trkpt>
      <trkpt lat="52.8928508889" lon="1.096748393">
        <ele>152.34</ele>
        <time>2022-01-29T11:15:49</time>
        <name>WPT 214</name>
        <desc />
      </trkpt>
      <trkpt lat="52.8939764109" lon="1.0983749013">
        <ele>160.81</ele>
        <time>2022-01-29T11:17:47</time>
        <name>WPT 215</name>
        <desc />
      </trkpt>
      <trkpt lat="52.8951062914" lon="1.0998781957">
        <ele>161.93</ele>
        <time>2022-01-29T11:19:21</time>
        <name>WPT 216</name>
        <desc />
      </trkpt>
      <trkpt lat="52.8959703818" lon="1.1006063316">
        <ele>161.08</ele>
        <time>2022-01-29T11:20:32</time>
        <name>WPT 217</name>
        <desc />
      </trkpt>
      <trkpt lat="52.8967623878" lon="1.1001512781">
        <ele>161.08</ele>
        <time>2022-01-29T11:22:25</time>
        <name>WPT 218</name>
        <desc />
      </trkpt>
      <trkpt lat="52.8980917577" lon="1.1018937081">
        <ele>159.02</ele>
        <time>2022-01-29T11:24:27</time>
        <name>WPT 219</name>
        <desc />
      </trkpt>
      <trkpt lat="52.8995500412" lon="1.1026924197">
        <ele>154.31</ele>
        <time>2022-01-29T11:26:45</time>
        <name>WPT 220</name>
        <desc />
      </trkpt>
      <trkpt lat="52.900353279" lon="1.1008055694">
        <ele>160.06</ele>
        <time>2022-01-29T11:28:27</time>
        <name>WPT 221</name>
        <desc />
      </trkpt>
      <trkpt lat="52.9010335542" lon="1.0999900941">
        <ele>159.2</ele>
        <time>2022-01-29T11:30:27</time>
        <name>WPT 222</name>
        <desc />
      </trkpt>
      <trkpt lat="52.9020666238" lon="1.1002603266">
        <ele>162.57</ele>
        <time>2022-01-29T11:31:38</time>
        <name>WPT 223</name>
        <desc />
      </trkpt>
      <trkpt lat="52.9025152232" lon="1.0989069007">
        <ele>162.69</ele>
        <time>2022-01-29T11:32:37</time>
        <name>WPT 224</name>
        <desc />
      </trkpt>
      <trkpt lat="52.9028458893" lon="1.0979357734">
        <ele>161.6</ele>
        <time>2022-01-29T11:39:08</time>
        <name>WPT 225</name>
        <desc />
      </trkpt>
      <trkpt lat="52.903131796" lon="1.096697012">
        <ele>164.02</ele>
        <time>2022-01-29T11:44:24</time>
        <name>WPT 226</name>
        <desc />
      </trkpt>
      <trkpt lat="52.903674189" lon="1.0955779441">
        <ele>161.95</ele>
        <time>2022-01-29T11:45:27</time>
        <name>WPT 227</name>
        <desc />
      </trkpt>
      <trkpt lat="52.9037846625" lon="1.0940401163">
        <ele>161.66</ele>
        <time>2022-01-29T11:46:35</time>
        <name>WPT 228</name>
        <desc />
      </trkpt>
      <trkpt lat="52.9035304394" lon="1.0925453715">
        <ele>161.37</ele>
        <time>2022-01-29T11:47:37</time>
        <name>WPT 229</name>
        <desc />
      </trkpt>
      <trkpt lat="52.9032204766" lon="1.0910671391">
        <ele>162.89</ele>
        <time>2022-01-29T11:48:45</time>
        <name>WPT 230</name>
        <desc />
      </trkpt>
      <trkpt lat="52.9029281996" lon="1.0895057581">
        <ele>162.88</ele>
        <time>2022-01-29T11:49:52</time>
        <name>WPT 231</name>
        <desc />
      </trkpt>
      <trkpt lat="52.9030167125" lon="1.0879851133">
        <ele>160.13</ele>
        <time>2022-01-29T11:51:25</time>
        <name>WPT 232</name>
        <desc />
      </trkpt>
      <trkpt lat="52.9040310904" lon="1.0873853043">
        <ele>162.8</ele>
        <time>2022-01-29T11:52:35</time>
        <name>WPT 233</name>
        <desc />
      </trkpt>
      <trkpt lat="52.904939102" lon="1.0869766027">
        <ele>162.27</ele>
        <time>2022-01-29T11:53:39</time>
        <name>WPT 234</name>
        <desc />
      </trkpt>
      <trkpt lat="52.9051359091" lon="1.0870703962">
        <ele>163.31</ele>
        <time>2022-01-29T11:54:46</time>
        <name>WPT 235</name>
        <desc />
      </trkpt>
      <trkpt lat="52.905785758" lon="1.0879340675">
        <ele>162.91</ele>
        <time>2022-01-29T11:55:52</time>
        <name>WPT 236</name>
        <desc />
      </trkpt>
      <trkpt lat="52.9060388915" lon="1.0893904231">
        <ele>162.95</ele>
        <time>2022-01-29T11:57:07</time>
        <name>WPT 237</name>
        <desc />
      </trkpt>
      <trkpt lat="52.9060657136" lon="1.0907805618">
        <ele>161.19</ele>
        <time>2022-01-29T11:58:08</time>
        <name>WPT 238</name>
        <desc />
      </trkpt>
      <trkpt lat="52.9061228782" lon="1.0922401864">
        <ele>162.49</ele>
        <time>2022-01-29T11:59:11</time>
        <name>WPT 239</name>
        <desc />
      </trkpt>
      <trkpt lat="52.9067943525" lon="1.0929510556">
        <ele>164.93</ele>
        <time>2022-01-29T12:00:28</time>
        <name>WPT 240</name>
        <desc />
      </trkpt>
      <trkpt lat="52.9074755497" lon="1.0933859088">
        <ele>163.03</ele>
        <time>2022-01-29T12:01:35</time>
        <name>WPT 241</name>
        <desc />
      </trkpt>
      <trkpt lat="52.9076651484" lon="1.0947746225">
        <ele>162.96</ele>
        <time>2022-01-29T12:02:37</time>
        <name>WPT 242</name>
        <desc />
      </trkpt>
      <trkpt lat="52.9078084789" lon="1.0961909126">
        <ele>165.49</ele>
        <time>2022-01-29T12:03:38</time>
        <name>WPT 243</name>
        <desc />
      </trkpt>
      <trkpt lat="52.9082805477" lon="1.0974532273">
        <ele>165.85</ele>
        <time>2022-01-29T12:04:43</time>
        <name>WPT 244</name>
        <desc />
      </trkpt>
      <trkpt lat="52.9087480903" lon="1.098738173">
        <ele>166.36</ele>
        <time>2022-01-29T12:05:45</time>
        <name>WPT 245</name>
        <desc />
      </trkpt>
      <trkpt lat="52.9090645909" lon="1.1001655273">
        <ele>165.02</ele>
        <time>2022-01-29T12:06:51</time>
        <name>WPT 246</name>
        <desc />
      </trkpt>
      <trkpt lat="52.9093939997" lon="1.1016194522">
        <ele>163.63</ele>
        <time>2022-01-29T12:07:56</time>
        <name>WPT 247</name>
        <desc />
      </trkpt>
      <trkpt lat="52.909678733" lon="1.1030488182">
        <ele>161.21</ele>
        <time>2022-01-29T12:09:00</time>
        <name>WPT 248</name>
        <desc />
      </trkpt>
      <trkpt lat="52.9099586047" lon="1.1045867298">
        <ele>159.57</ele>
        <time>2022-01-29T12:10:05</time>
        <name>WPT 249</name>
        <desc />
      </trkpt>
      <trkpt lat="52.9103389755" lon="1.1062673014">
        <ele>159.01</ele>
        <time>2022-01-29T12:11:19</time>
        <name>WPT 250</name>
        <desc />
      </trkpt>
      <trkpt lat="52.9106325097" lon="1.1078151874">
        <ele>158.87</ele>
        <time>2022-01-29T12:12:24</time>
        <name>WPT 251</name>
        <desc />
      </trkpt>
      <trkpt lat="52.9109240323" lon="1.1092458945">
        <ele>158.22</ele>
        <time>2022-01-29T12:13:26</time>
        <name>WPT 252</name>
        <desc />
      </trkpt>
      <trkpt lat="52.9113344103" lon="1.1106934492">
        <ele>159.9</ele>
        <time>2022-01-29T12:14:37</time>
        <name>WPT 253</name>
        <desc />
      </trkpt>
      <trkpt lat="52.9118585307" lon="1.1124446802">
        <ele>163.84</ele>
        <time>2022-01-29T12:15:59</time>
        <name>WPT 254</name>
        <desc />
      </trkpt>
      <trkpt lat="52.9122911207" lon="1.113886619">
        <ele>164.15</ele>
        <time>2022-01-29T12:17:03</time>
        <name>WPT 255</name>
        <desc />
      </trkpt>
      <trkpt lat="52.9127123952" lon="1.1152841337">
        <ele>162.34</ele>
        <time>2022-01-29T12:18:07</time>
        <name>WPT 256</name>
        <desc />
      </trkpt>
      <trkpt lat="52.9129760899" lon="1.1167046148">
        <ele>160.47</ele>
        <time>2022-01-29T12:19:09</time>
        <name>WPT 257</name>
        <desc />
      </trkpt>
      <trkpt lat="52.9132423829" lon="1.11832425">
        <ele>161.43</ele>
        <time>2022-01-29T12:20:19</time>
        <name>WPT 258</name>
        <desc />
      </trkpt>
      <trkpt lat="52.9137504101" lon="1.1200360861">
        <ele>162.13</ele>
        <time>2022-01-29T12:21:34</time>
        <name>WPT 259</name>
        <desc />
      </trkpt>
      <trkpt lat="52.9141800664" lon="1.1219648458">
        <ele>162</ele>
        <time>2022-01-29T12:23:02</time>
        <name>WPT 260</name>
        <desc />
      </trkpt>
      <trkpt lat="52.9150537122" lon="1.1214796174">
        <ele>162.63</ele>
        <time>2022-01-29T12:24:13</time>
        <name>WPT 261</name>
        <desc />
      </trkpt>
      <trkpt lat="52.915874552" lon="1.1220368464">
        <ele>162.18</ele>
        <time>2022-01-29T12:25:17</time>
        <name>WPT 262</name>
        <desc />
      </trkpt>
      <trkpt lat="52.9167167656" lon="1.1227111705">
        <ele>161.25</ele>
        <time>2022-01-29T12:26:22</time>
        <name>WPT 263</name>
        <desc />
      </trkpt>
      <trkpt lat="52.91752805" lon="1.1233419925">
        <ele>161.16</ele>
        <time>2022-01-29T12:27:25</time>
        <name>WPT 264</name>
        <desc />
      </trkpt>
      <trkpt lat="52.9183314554" lon="1.1239780951">
        <ele>162.06</ele>
        <time>2022-01-29T12:28:28</time>
        <name>WPT 265</name>
        <desc />
      </trkpt>
      <trkpt lat="52.9191582464" lon="1.1246156227">
        <ele>163.31</ele>
        <time>2022-01-29T12:29:32</time>
        <name>WPT 266</name>
        <desc />
      </trkpt>
      <trkpt lat="52.919988893" lon="1.1252866779">
        <ele>164.27</ele>
        <time>2022-01-29T12:30:38</time>
        <name>WPT 267</name>
        <desc />
      </trkpt>
      <trkpt lat="52.9208213836" lon="1.1259094533">
        <ele>166.8</ele>
        <time>2022-01-29T12:31:40</time>
        <name>WPT 268</name>
        <desc />
      </trkpt>
      <trkpt lat="52.9216174968" lon="1.1265308876">
        <ele>165.6</ele>
        <time>2022-01-29T12:32:43</time>
        <name>WPT 269</name>
        <desc />
      </trkpt>
      <trkpt lat="52.9224425275" lon="1.1271821614">
        <ele>166.62</ele>
        <time>2022-01-29T12:33:48</time>
        <name>WPT 270</name>
        <desc />
      </trkpt>
      <trkpt lat="52.9233353678" lon="1.1278373748">
        <ele>169.3</ele>
        <time>2022-01-29T12:34:58</time>
        <name>WPT 271</name>
        <desc />
      </trkpt>
      <trkpt lat="52.9241902381" lon="1.128518153">
        <ele>169.8</ele>
        <time>2022-01-29T12:36:05</time>
        <name>WPT 272</name>
        <desc />
      </trkpt>
      <trkpt lat="52.9251238983" lon="1.1292497255">
        <ele>170.06</ele>
        <time>2022-01-29T12:37:16</time>
        <name>WPT 273</name>
        <desc />
      </trkpt>
      <trkpt lat="52.9260993842" lon="1.1299973913">
        <ele>171.8</ele>
        <time>2022-01-29T12:38:26</time>
        <name>WPT 274</name>
        <desc />
      </trkpt>
      <trkpt lat="52.9267260991" lon="1.1292692553">
        <ele>172.29</ele>
        <time>2022-01-29T12:39:37</time>
        <name>WPT 275</name>
        <desc />
      </trkpt>
      <trkpt lat="52.9273748584" lon="1.128024878">
        <ele>172.74</ele>
        <time>2022-01-29T12:40:47</time>
        <name>WPT 276</name>
        <desc />
      </trkpt>
      <trkpt lat="52.9282147251" lon="1.1273356341">
        <ele>172.32</ele>
        <time>2022-01-29T12:41:45</time>
        <name>WPT 277</name>
        <desc />
      </trkpt>
      <trkpt lat="52.929011425" lon="1.1267389264">
        <ele>171.47</ele>
        <time>2022-01-29T12:42:43</time>
        <name>WPT 278</name>
        <desc />
      </trkpt>
      <trkpt lat="52.9297090508" lon="1.1259127222">
        <ele>169.07</ele>
        <time>2022-01-29T12:43:53</time>
        <name>WPT 279</name>
        <desc />
      </trkpt>
      <trkpt lat="52.9304775875" lon="1.12513748">
        <ele>167.24</ele>
        <time>2022-01-29T12:44:56</time>
        <name>WPT 280</name>
        <desc />
      </trkpt>
      <trkpt lat="52.9312482197" lon="1.1244546901">
        <ele>167.9</ele>
        <time>2022-01-29T12:46:00</time>
        <name>WPT 281</name>
        <desc />
      </trkpt>
      <trkpt lat="52.9320940375" lon="1.1239894107">
        <ele>167.77</ele>
        <time>2022-01-29T12:47:07</time>
        <name>WPT 282</name>
        <desc />
      </trkpt>
      <trkpt lat="52.9330012947" lon="1.1238617543">
        <ele>168.47</ele>
        <time>2022-01-29T12:48:15</time>
        <name>WPT 283</name>
        <desc />
      </trkpt>
      <trkpt lat="52.9338919558" lon="1.1236203555">
        <ele>168.08</ele>
        <time>2022-01-29T12:49:18</time>
        <name>WPT 284</name>
        <desc />
      </trkpt>
      <trkpt lat="52.9347679485" lon="1.1234004144">
        <ele>169.52</ele>
        <time>2022-01-29T12:50:23</time>
        <name>WPT 285</name>
        <desc />
      </trkpt>
      <trkpt lat="52.935564816" lon="1.1224178877">
        <ele>161.19</ele>
        <time>2022-01-29T12:51:55</time>
        <name>WPT 286</name>
        <desc />
      </trkpt>
      <trkpt lat="52.9364311695" lon="1.1215430684">
        <ele>154.28</ele>
        <time>2022-01-29T12:53:06</time>
        <name>WPT 287</name>
        <desc />
      </trkpt>
      <trkpt lat="52.9375541769" lon="1.1206050497">
        <ele>145.83</ele>
        <time>2022-01-29T12:54:25</time>
        <name>WPT 288</name>
        <desc />
      </trkpt>
      <trkpt lat="52.9385358654" lon="1.1196991336">
        <ele>140.53</ele>
        <time>2022-01-29T12:55:40</time>
        <name>WPT 289</name>
        <desc />
      </trkpt>
      <trkpt lat="52.9394536" lon="1.1188878492">
        <ele>134.27</ele>
        <time>2022-01-29T12:56:47</time>
        <name>WPT 290</name>
        <desc />
      </trkpt>
      <trkpt lat="52.9404672235" lon="1.1184764653">
        <ele>127.37</ele>
        <time>2022-01-29T12:57:52</time>
        <name>WPT 291</name>
        <desc />
      </trkpt>
      <trkpt lat="52.9414147139" lon="1.1181427818">
        <ele>120.51</ele>
        <time>2022-01-29T12:59:02</time>
        <name>WPT 292</name>
        <desc />
      </trkpt>
      <trkpt lat="52.9424586799" lon="1.1183897126">
        <ele>119.38</ele>
        <time>2022-01-29T13:00:06</time>
        <name>WPT 293</name>
        <desc />
      </trkpt>
      <trkpt lat="52.9429316707" lon="1.117729051">
        <ele>116.72</ele>
        <time>2022-01-29T13:01:05</time>
        <name>WPT 294</name>
        <desc />
      </trkpt>
      <trkpt lat="52.9428593349" lon="1.1163266748">
        <ele>114.73</ele>
        <time>2022-01-29T13:02:08</time>
        <name>WPT 295</name>
        <desc />
      </trkpt>
      <trkpt lat="52.9428451695" lon="1.1150892545">
        <ele>113.53</ele>
        <time>2022-01-29T13:03:10</time>
        <name>WPT 296</name>
        <desc />
      </trkpt>
      <trkpt lat="52.9437072482" lon="1.1152467504">
        <ele>110.91</ele>
        <time>2022-01-29T13:04:08</time>
        <name>WPT 297</name>
        <desc />
      </trkpt>
      <trkpt lat="52.9445974063" lon="1.1155388597">
        <ele>108.44</ele>
        <time>2022-01-29T13:05:07</time>
        <name>WPT 298</name>
        <desc />
      </trkpt>
      <trkpt lat="52.9454490077" lon="1.1161539238">
        <ele>104.73</ele>
        <time>2022-01-29T13:06:08</time>
        <name>WPT 299</name>
        <desc />
      </trkpt>
      <trkpt lat="52.9463065602" lon="1.1166691594">
        <ele>101.55</ele>
        <time>2022-01-29T13:07:07</time>
        <name>WPT 300</name>
        <desc />
      </trkpt>
      <trkpt lat="52.9471847322" lon="1.1168642901">
        <ele>99.49</ele>
        <time>2022-01-29T13:08:07</time>
        <name>WPT 301</name>
        <desc />
      </trkpt>
      <trkpt lat="52.9479892273" lon="1.1163430195">
        <ele>98.71</ele>
        <time>2022-01-29T13:09:04</time>
        <name>WPT 302</name>
        <desc />
      </trkpt>
      <trkpt lat="52.9488070495" lon="1.1158647481">
        <ele>96.63</ele>
        <time>2022-01-29T13:10:04</time>
        <name>WPT 303</name>
        <desc />
      </trkpt>
      <trkpt lat="52.9496381991" lon="1.1154227704">
        <ele>97.17</ele>
        <time>2022-01-29T13:11:04</time>
        <name>WPT 304</name>
        <desc />
      </trkpt>
      <trkpt lat="52.9500934202" lon="1.1161157023">
        <ele>93.56</ele>
        <time>2022-01-29T13:12:04</time>
        <name>WPT 305</name>
        <desc />
      </trkpt>
      <trkpt lat="52.9499588907" lon="1.1175430566">
        <ele>93.08</ele>
        <time>2022-01-29T13:13:08</time>
        <name>WPT 306</name>
        <desc />
      </trkpt>
      <trkpt lat="52.9507347196" lon="1.1174264643">
        <ele>95.66</ele>
        <time>2022-01-29T13:14:09</time>
        <name>WPT 307</name>
        <desc />
      </trkpt>
      <trkpt lat="52.9515614267" lon="1.1172994785">
        <ele>96.53</ele>
        <time>2022-01-29T13:15:07</time>
        <name>WPT 308</name>
        <desc />
      </trkpt>
      <trkpt lat="52.9519145563" lon="1.1184468772">
        <ele>96.04</ele>
        <time>2022-01-29T13:16:07</time>
        <name>WPT 309</name>
        <desc />
      </trkpt>
      <trkpt lat="52.9518153146" lon="1.1198682804">
        <ele>99.61</ele>
        <time>2022-01-29T13:17:18</time>
        <name>WPT 310</name>
        <desc />
      </trkpt>
      <trkpt lat="52.9516084492" lon="1.1212517973">
        <ele>100.72</ele>
        <time>2022-01-29T13:18:27</time>
        <name>WPT 311</name>
        <desc />
      </trkpt>
      <trkpt lat="52.9513962194" lon="1.1226468813">
        <ele>99.67</ele>
        <time>2022-01-29T13:19:37</time>
        <name>WPT 312</name>
        <desc />
      </trkpt>
      <trkpt lat="52.9510852508" lon="1.1240186635">
        <ele>99.67</ele>
        <time>2022-01-29T13:20:40</time>
        <name>WPT 313</name>
        <desc />
      </trkpt>
      <trkpt lat="52.9509391543" lon="1.1253918707">
        <ele>100.78</ele>
        <time>2022-01-29T13:21:43</time>
        <name>WPT 314</name>
        <desc />
      </trkpt>
      <trkpt lat="52.9507247452" lon="1.1267658323">
        <ele>105.39</ele>
        <time>2022-01-29T13:22:47</time>
        <name>WPT 315</name>
        <desc />
      </trkpt>
      <trkpt lat="52.9504216556" lon="1.1281066854">
        <ele>105.44</ele>
        <time>2022-01-29T13:23:47</time>
        <name>WPT 316</name>
        <desc />
      </trkpt>
      <trkpt lat="52.9501501657" lon="1.1294488795">
        <ele>97.97</ele>
        <time>2022-01-29T13:24:52</time>
        <name>WPT 317</name>
        <desc />
      </trkpt>
      <trkpt lat="52.9499230999" lon="1.1308666784">
        <ele>97.75</ele>
        <time>2022-01-29T13:25:54</time>
        <name>WPT 318</name>
        <desc />
      </trkpt>
      <trkpt lat="52.9497688729" lon="1.1323076114">
        <ele>99.98</ele>
        <time>2022-01-29T13:27:06</time>
        <name>WPT 319</name>
        <desc />
      </trkpt>
      <trkpt lat="52.9496350139" lon="1.133733876">
        <ele>101.98</ele>
        <time>2022-01-29T13:28:04</time>
        <name>WPT 320</name>
        <desc />
      </trkpt>
      <trkpt lat="52.9494495224" lon="1.1351474002">
        <ele>101.84</ele>
        <time>2022-01-29T13:29:05</time>
        <name>WPT 321</name>
        <desc />
      </trkpt>
      <trkpt lat="52.949300576" lon="1.1365822144">
        <ele>101.34</ele>
        <time>2022-01-29T13:30:03</time>
        <name>WPT 322</name>
        <desc />
      </trkpt>
      <trkpt lat="52.9491603468" lon="1.1379747">
        <ele>100.19</ele>
        <time>2022-01-29T13:31:04</time>
        <name>WPT 323</name>
        <desc />
      </trkpt>
      <trkpt lat="52.9490818083" lon="1.1394194886">
        <ele>99.58</ele>
        <time>2022-01-29T13:32:09</time>
        <name>WPT 324</name>
        <desc />
      </trkpt>
      <trkpt lat="52.9489630368" lon="1.1408354435">
        <ele>100.38</ele>
        <time>2022-01-29T13:33:20</time>
        <name>WPT 325</name>
        <desc />
      </trkpt>
      <trkpt lat="52.9488274176" lon="1.142283082">
        <ele>108.52</ele>
        <time>2022-01-29T13:34:24</time>
        <name>WPT 326</name>
        <desc />
      </trkpt>
      <trkpt lat="52.9487118311" lon="1.1437046528">
        <ele>113.2</ele>
        <time>2022-01-29T13:35:24</time>
        <name>WPT 327</name>
        <desc />
      </trkpt>
      <trkpt lat="52.9485457856" lon="1.1451372877">
        <ele>118.96</ele>
        <time>2022-01-29T13:36:24</time>
        <name>WPT 328</name>
        <desc />
      </trkpt>
      <trkpt lat="52.9484446999" lon="1.1465803161">
        <ele>117.05</ele>
        <time>2022-01-29T13:37:21</time>
        <name>WPT 329</name>
        <desc />
      </trkpt>
      <trkpt lat="52.9482918978" lon="1.1479917448">
        <ele>116.85</ele>
        <time>2022-01-29T13:38:17</time>
        <name>WPT 330</name>
        <desc />
      </trkpt>
      <trkpt lat="52.9478648398" lon="1.1492276564">
        <ele>115.45</ele>
        <time>2022-01-29T13:39:15</time>
        <name>WPT 331</name>
        <desc />
      </trkpt>
      <trkpt lat="52.9482360743" lon="1.150113456">
        <ele>112.85</ele>
        <time>2022-01-29T13:40:25</time>
        <name>WPT 332</name>
        <desc />
      </trkpt>
      <trkpt lat="52.9481766466" lon="1.1515715718">
        <ele>110.68</ele>
        <time>2022-01-29T13:41:22</time>
        <name>WPT 333</name>
        <desc />
      </trkpt>
      <trkpt lat="52.9481163807" lon="1.1530347168">
        <ele>112.91</ele>
        <time>2022-01-29T13:42:22</time>
        <name>WPT 334</name>
        <desc />
      </trkpt>
      <trkpt lat="52.9480044823" lon="1.1544898152">
        <ele>113.99</ele>
        <time>2022-01-29T13:43:21</time>
        <name>WPT 335</name>
        <desc />
      </trkpt>
      <trkpt lat="52.947900882" lon="1.1559242103">
        <ele>114.45</ele>
        <time>2022-01-29T13:44:20</time>
        <name>WPT 336</name>
        <desc />
      </trkpt>
      <trkpt lat="52.9478236847" lon="1.1573526543">
        <ele>113.65</ele>
        <time>2022-01-29T13:45:19</time>
        <name>WPT 337</name>
        <desc />
      </trkpt>
      <trkpt lat="52.9477888159" lon="1.1587751471">
        <ele>109.21</ele>
        <time>2022-01-29T13:46:21</time>
        <name>WPT 338</name>
        <desc />
      </trkpt>
      <trkpt lat="52.9477205873" lon="1.1602036748">
        <ele>111.32</ele>
        <time>2022-01-29T13:47:21</time>
        <name>WPT 339</name>
        <desc />
      </trkpt>
      <trkpt lat="52.9476792645" lon="1.161636645">
        <ele>113.31</ele>
        <time>2022-01-29T13:48:19</time>
        <name>WPT 340</name>
        <desc />
      </trkpt>
      <trkpt lat="52.94757667" lon="1.1630517617">
        <ele>110.77</ele>
        <time>2022-01-29T13:49:18</time>
        <name>WPT 341</name>
        <desc />
      </trkpt>
      <trkpt lat="52.9474410508" lon="1.1644859891">
        <ele>106.97</ele>
        <time>2022-01-29T13:50:19</time>
        <name>WPT 342</name>
        <desc />
      </trkpt>
      <trkpt lat="52.9472489376" lon="1.1658659019">
        <ele>101.49</ele>
        <time>2022-01-29T13:51:17</time>
        <name>WPT 343</name>
        <desc />
      </trkpt>
      <trkpt lat="52.9472282343" lon="1.1673238501">
        <ele>105.81</ele>
        <time>2022-01-29T13:52:17</time>
        <name>WPT 344</name>
        <desc />
      </trkpt>
      <trkpt lat="52.9472102132" lon="1.1687417328">
        <ele>108.58</ele>
        <time>2022-01-29T13:53:14</time>
        <name>WPT 345</name>
        <desc />
      </trkpt>
      <trkpt lat="52.9470643681" lon="1.1701892037">
        <ele>110.12</ele>
        <time>2022-01-29T13:54:12</time>
        <name>WPT 346</name>
        <desc />
      </trkpt>
      <trkpt lat="52.9467914533" lon="1.1715555377">
        <ele>110.27</ele>
        <time>2022-01-29T13:55:10</time>
        <name>WPT 347</name>
        <desc />
      </trkpt>
      <trkpt lat="52.9461814184" lon="1.1725568399">
        <ele>112.43</ele>
        <time>2022-01-29T13:56:08</time>
        <name>WPT 348</name>
        <desc />
      </trkpt>
      <trkpt lat="52.945316406" lon="1.1726444308">
        <ele>113.15</ele>
        <time>2022-01-29T13:57:05</time>
        <name>WPT 349</name>
        <desc />
      </trkpt>
      <trkpt lat="52.9444503039" lon="1.1727367993">
        <ele>115.9</ele>
        <time>2022-01-29T13:58:03</time>
        <name>WPT 350</name>
        <desc />
      </trkpt>
      <trkpt lat="52.9435816873" lon="1.1728322692">
        <ele>122.13</ele>
        <time>2022-01-29T13:59:04</time>
        <name>WPT 351</name>
        <desc />
      </trkpt>
      <trkpt lat="52.9427197762" lon="1.1729248893">
        <ele>120.37</ele>
        <time>2022-01-29T14:00:01</time>
        <name>WPT 352</name>
        <desc />
      </trkpt>
      <trkpt lat="52.9418255109" lon="1.1730104685">
        <ele>123.69</ele>
        <time>2022-01-29T14:01:01</time>
        <name>WPT 353</name>
        <desc />
      </trkpt>
      <trkpt lat="52.9411076847" lon="1.1727007572">
        <ele>126.17</ele>
        <time>2022-01-29T14:02:05</time>
        <name>WPT 354</name>
        <desc />
      </trkpt>
      <trkpt lat="52.9409163259" lon="1.1714103632">
        <ele>115.38</ele>
        <time>2022-01-29T14:03:13</time>
        <name>WPT 355</name>
        <desc />
      </trkpt>
      <trkpt lat="52.9400933068" lon="1.1718673445">
        <ele>119.39</ele>
        <time>2022-01-29T14:04:15</time>
        <name>WPT 356</name>
        <desc />
      </trkpt>
      <trkpt lat="52.9392279591" lon="1.1720574461">
        <ele>123.71</ele>
        <time>2022-01-29T14:05:16</time>
        <name>WPT 357</name>
        <desc />
      </trkpt>
      <trkpt lat="52.9383815546" lon="1.171462331">
        <ele>125.88</ele>
        <time>2022-01-29T14:06:18</time>
        <name>WPT 358</name>
        <desc />
      </trkpt>
      <trkpt lat="52.937826924" lon="1.1707278248">
        <ele>124.82</ele>
        <time>2022-01-29T14:07:20</time>
        <name>WPT 359</name>
        <desc />
      </trkpt>
      <trkpt lat="52.936933497" lon="1.1707184371">
        <ele>123.52</ele>
        <time>2022-01-29T14:08:23</time>
        <name>WPT 360</name>
        <desc />
      </trkpt>
      <trkpt lat="52.9360601027" lon="1.1709256377">
        <ele>128.65</ele>
        <time>2022-01-29T14:09:23</time>
        <name>WPT 361</name>
        <desc />
      </trkpt>
      <trkpt lat="52.935497677" lon="1.1716491636">
        <ele>134.53</ele>
        <time>2022-01-29T14:10:26</time>
        <name>WPT 362</name>
        <desc />
      </trkpt>
      <trkpt lat="52.9351678491" lon="1.1729910225">
        <ele>139.79</ele>
        <time>2022-01-29T14:11:27</time>
        <name>WPT 363</name>
        <desc />
      </trkpt>
      <trkpt lat="52.9347186629" lon="1.1743229907">
        <ele>138.59</ele>
        <time>2022-01-29T14:12:29</time>
        <name>WPT 364</name>
        <desc />
      </trkpt>
      <trkpt lat="52.9344724864" lon="1.175737856">
        <ele>136.38</ele>
        <time>2022-01-29T14:13:29</time>
        <name>WPT 365</name>
        <desc />
      </trkpt>
      <trkpt lat="52.9341598414" lon="1.1771109793">
        <ele>133.44</ele>
        <time>2022-01-29T14:14:29</time>
        <name>WPT 366</name>
        <desc />
      </trkpt>
      <trkpt lat="52.9336419236" lon="1.178340856">
        <ele>128.52</ele>
        <time>2022-01-29T14:15:31</time>
        <name>WPT 367</name>
        <desc />
      </trkpt>
      <trkpt lat="52.9331134446" lon="1.1795054376">
        <ele>128.53</ele>
        <time>2022-01-29T14:16:26</time>
        <name>WPT 368</name>
        <desc />
      </trkpt>
      <trkpt lat="52.9327447247" lon="1.1808185466">
        <ele>130.71</ele>
        <time>2022-01-29T14:17:25</time>
        <name>WPT 369</name>
        <desc />
      </trkpt>
      <trkpt lat="52.932547247" lon="1.182228718">
        <ele>132.28</ele>
        <time>2022-01-29T14:18:21</time>
        <name>WPT 370</name>
        <desc />
      </trkpt>
      <trkpt lat="52.9328397755" lon="1.1835854128">
        <ele>134.64</ele>
        <time>2022-01-29T14:19:23</time>
        <name>WPT 371</name>
        <desc />
      </trkpt>
      <trkpt lat="52.9328260291" lon="1.1853309441">
        <ele>127.63</ele>
        <time>2022-01-29T14:20:32</time>
        <name>WPT 372</name>
        <desc />
      </trkpt>
      <trkpt lat="52.9324816167" lon="1.18673902">
        <ele>124.38</ele>
        <time>2022-01-29T14:21:32</time>
        <name>WPT 373</name>
        <desc />
      </trkpt>
      <trkpt lat="52.9320658743" lon="1.1880215351">
        <ele>124.39</ele>
        <time>2022-01-29T14:22:33</time>
        <name>WPT 374</name>
        <desc />
      </trkpt>
      <trkpt lat="52.9317384772" lon="1.1892452091">
        <ele>125.06</ele>
        <time>2022-01-29T14:23:35</time>
        <name>WPT 375</name>
        <desc />
      </trkpt>
      <trkpt lat="52.9316001758" lon="1.1907873955">
        <ele>127</ele>
        <time>2022-01-29T14:24:41</time>
        <name>WPT 376</name>
        <desc />
      </trkpt>
      <trkpt lat="52.9321084544" lon="1.1918550823">
        <ele>125.46</ele>
        <time>2022-01-29T14:25:45</time>
        <name>WPT 377</name>
        <desc />
      </trkpt>
      <trkpt lat="52.9324511066" lon="1.1931691971">
        <ele>124.78</ele>
        <time>2022-01-29T14:26:43</time>
        <name>WPT 378</name>
        <desc />
      </trkpt>
      <trkpt lat="52.9325661901" lon="1.1946475133">
        <ele>127.29</ele>
        <time>2022-01-29T14:27:47</time>
        <name>WPT 379</name>
        <desc />
      </trkpt>
      <trkpt lat="52.9326714668" lon="1.1961529031">
        <ele>131.58</ele>
        <time>2022-01-29T14:28:52</time>
        <name>WPT 380</name>
        <desc />
      </trkpt>
      <trkpt lat="52.93291362" lon="1.1976618133">
        <ele>135.03</ele>
        <time>2022-01-29T14:30:00</time>
        <name>WPT 381</name>
        <desc />
      </trkpt>
      <trkpt lat="52.9332394246" lon="1.1991034169">
        <ele>138.98</ele>
        <time>2022-01-29T14:31:05</time>
        <name>WPT 382</name>
        <desc />
      </trkpt>
      <trkpt lat="52.9332895484" lon="1.2007609382">
        <ele>138.66</ele>
        <time>2022-01-29T14:32:17</time>
        <name>WPT 383</name>
        <desc />
      </trkpt>
      <trkpt lat="52.9332037177" lon="1.2025664002">
        <ele>137.03</ele>
        <time>2022-01-29T14:33:28</time>
        <name>WPT 384</name>
        <desc />
      </trkpt>
      <trkpt lat="52.9331181385" lon="1.2041590456">
        <ele>136.55</ele>
        <time>2022-01-29T14:34:37</time>
        <name>WPT 385</name>
        <desc />
      </trkpt>
      <trkpt lat="52.9337077215" lon="1.2049125787">
        <ele>132.15</ele>
        <time>2022-01-29T14:35:52</time>
        <name>WPT 386</name>
        <desc />
      </trkpt>
      <trkpt lat="52.9346106201" lon="1.2050703261">
        <ele>128.94</ele>
        <time>2022-01-29T14:36:50</time>
        <name>WPT 387</name>
        <desc />
      </trkpt>
      <trkpt lat="52.9353482276" lon="1.2056402955">
        <ele>128.25</ele>
        <time>2022-01-29T14:37:49</time>
        <name>WPT 388</name>
        <desc />
      </trkpt>
      <trkpt lat="52.9346744902" lon="1.2051176">
        <ele>128.87</ele>
        <time>2022-01-29T14:38:47</time>
        <name>WPT 389</name>
        <desc />
      </trkpt>
      <trkpt lat="52.9337969888" lon="1.2049234752">
        <ele>130.55</ele>
        <time>2022-01-29T14:39:42</time>
        <name>WPT 390</name>
        <desc />
      </trkpt>
      <trkpt lat="52.9329082556" lon="1.2048703339">
        <ele>134.4</ele>
        <time>2022-01-29T14:40:41</time>
        <name>WPT 391</name>
        <desc />
      </trkpt>
      <trkpt lat="52.9323079437" lon="1.2046052981">
        <ele>135.29</ele>
        <time>2022-01-29T14:43:04</time>
        <name>WPT 392</name>
        <desc />
      </trkpt>
      <trkpt lat="52.9329282884" lon="1.2055403832">
        <ele>136.34</ele>
        <time>2022-01-29T14:55:48</time>
        <name>WPT 393</name>
        <desc />
      </trkpt>
      <trkpt lat="52.932776073" lon="1.2070128322">
        <ele>136.49</ele>
        <time>2022-01-29T14:56:51</time>
        <name>WPT 394</name>
        <desc />
      </trkpt>
      <trkpt lat="52.932288833" lon="1.2082286272">
        <ele>140.68</ele>
        <time>2022-01-29T14:57:56</time>
        <name>WPT 395</name>
        <desc />
      </trkpt>
      <trkpt lat="52.9314476252" lon="1.2086461298">
        <ele>143.73</ele>
        <time>2022-01-29T14:59:00</time>
        <name>WPT 396</name>
        <desc />
      </trkpt>
      <trkpt lat="52.9314904567" lon="1.2099036667">
        <ele>147.6</ele>
        <time>2022-01-29T15:00:05</time>
        <name>WPT 397</name>
        <desc />
      </trkpt>
      <trkpt lat="52.9319921974" lon="1.2110976689">
        <ele>140.82</ele>
        <time>2022-01-29T15:01:03</time>
        <name>WPT 398</name>
        <desc />
      </trkpt>
      <trkpt lat="52.932104012" lon="1.2125857919">
        <ele>133.57</ele>
        <time>2022-01-29T15:02:02</time>
        <name>WPT 399</name>
        <desc />
      </trkpt>
      <trkpt lat="52.9321176745" lon="1.2140257191">
        <ele>126.37</ele>
        <time>2022-01-29T15:03:01</time>
        <name>WPT 400</name>
        <desc />
      </trkpt>
      <trkpt lat="52.9324392043" lon="1.2152215652">
        <ele>121.54</ele>
        <time>2022-01-29T15:04:05</time>
        <name>WPT 401</name>
        <desc />
      </trkpt>
      <trkpt lat="52.9332442861" lon="1.2160146609">
        <ele>119.75</ele>
        <time>2022-01-29T15:05:20</time>
        <name>WPT 402</name>
        <desc />
      </trkpt>
      <trkpt lat="52.9342360329" lon="1.2166613247">
        <ele>116.55</ele>
        <time>2022-01-29T15:06:31</time>
        <name>WPT 403</name>
        <desc />
      </trkpt>
      <trkpt lat="52.9349588044" lon="1.2178756949">
        <ele>113.14</ele>
        <time>2022-01-29T15:07:38</time>
        <name>WPT 404</name>
        <desc />
      </trkpt>
      <trkpt lat="52.93563799" lon="1.2189526018">
        <ele>106.4</ele>
        <time>2022-01-29T15:08:42</time>
        <name>WPT 405</name>
        <desc />
      </trkpt>
      <trkpt lat="52.9362771939" lon="1.2200083025">
        <ele>104.73</ele>
        <time>2022-01-29T15:09:54</time>
        <name>WPT 406</name>
        <desc />
      </trkpt>
      <trkpt lat="52.9371443857" lon="1.2201180216">
        <ele>103.49</ele>
        <time>2022-01-29T15:10:56</time>
        <name>WPT 407</name>
        <desc />
      </trkpt>
      <trkpt lat="52.938026581" lon="1.2200321071">
        <ele>101.05</ele>
        <time>2022-01-29T15:11:58</time>
        <name>WPT 408</name>
        <desc />
      </trkpt>
      <trkpt lat="52.9388272204" lon="1.2196553405">
        <ele>99.73</ele>
        <time>2022-01-29T15:13:07</time>
        <name>WPT 409</name>
        <desc />
      </trkpt>
      <trkpt lat="52.939681923" lon="1.2192723714">
        <ele>98.48</ele>
        <time>2022-01-29T15:14:05</time>
        <name>WPT 410</name>
        <desc />
      </trkpt>
      <trkpt lat="52.940530004" lon="1.2188023143">
        <ele>95.97</ele>
        <time>2022-01-29T15:15:03</time>
        <name>WPT 411</name>
        <desc />
      </trkpt>
      <trkpt lat="52.9413656797" lon="1.2189047411">
        <ele>93.08</ele>
        <time>2022-01-29T15:16:04</time>
        <name>WPT 412</name>
        <desc />
      </trkpt>
      <trkpt lat="52.9422306921" lon="1.2191305496">
        <ele>96.31</ele>
        <time>2022-01-29T15:17:07</time>
        <name>WPT 413</name>
        <desc />
      </trkpt>
      <trkpt lat="52.9431514442" lon="1.2193778157">
        <ele>102.07</ele>
        <time>2022-01-29T15:18:13</time>
        <name>WPT 414</name>
        <desc />
      </trkpt>
      <trkpt lat="52.9437801708" lon="1.2205134798">
        <ele>113.16</ele>
        <time>2022-01-29T15:19:35</time>
        <name>WPT 415</name>
        <desc />
      </trkpt>
      <trkpt lat="52.9437672626" lon="1.2219970766">
        <ele>114.59</ele>
        <time>2022-01-29T15:20:40</time>
        <name>WPT 416</name>
        <desc />
      </trkpt>
      <trkpt lat="52.9435897339" lon="1.2234056555">
        <ele>116.97</ele>
        <time>2022-01-29T15:21:49</time>
        <name>WPT 417</name>
        <desc />
      </trkpt>
      <trkpt lat="52.9433641769" lon="1.2247646134">
        <ele>139.33</ele>
        <time>2022-01-29T15:23:21</time>
        <name>WPT 418</name>
        <desc />
      </trkpt>
      <trkpt lat="52.9432500154" lon="1.2261611223">
        <ele>132.26</ele>
        <time>2022-01-29T15:24:40</time>
        <name>WPT 419</name>
        <desc />
      </trkpt>
      <trkpt lat="52.9427165911" lon="1.227205256">
        <ele>111.33</ele>
        <time>2022-01-29T15:25:52</time>
        <name>WPT 420</name>
        <desc />
      </trkpt>
      <trkpt lat="52.9422475398" lon="1.2284296006">
        <ele>105.45</ele>
        <time>2022-01-29T15:26:51</time>
        <name>WPT 421</name>
        <desc />
      </trkpt>
      <trkpt lat="52.9414018057" lon="1.2286918703">
        <ele>102.09</ele>
        <time>2022-01-29T15:27:50</time>
        <name>WPT 422</name>
        <desc />
      </trkpt>
      <trkpt lat="52.9405803792" lon="1.2291601673">
        <ele>99.23</ele>
        <time>2022-01-29T15:28:53</time>
        <name>WPT 423</name>
        <desc />
      </trkpt>
      <trkpt lat="52.939822739" lon="1.2297768239">
        <ele>98.75</ele>
        <time>2022-01-29T15:29:59</time>
        <name>WPT 424</name>
        <desc />
      </trkpt>
      <trkpt lat="52.938925121" lon="1.2302129343">
        <ele>102.12</ele>
        <time>2022-01-29T15:31:05</time>
        <name>WPT 425</name>
        <desc />
      </trkpt>
      <trkpt lat="52.9380378127" lon="1.2305122521">
        <ele>103.86</ele>
        <time>2022-01-29T15:32:13</time>
        <name>WPT 426</name>
        <desc />
      </trkpt>
      <trkpt lat="52.9382770322" lon="1.2319222558">
        <ele>100.9</ele>
        <time>2022-01-29T15:33:14</time>
        <name>WPT 427</name>
        <desc />
      </trkpt>
      <trkpt lat="52.9377697594" lon="1.232866561">
        <ele>101.79</ele>
        <time>2022-01-29T15:34:14</time>
        <name>WPT 428</name>
        <desc />
      </trkpt>
      <trkpt lat="52.9369745683" lon="1.2336300686">
        <ele>103.3</ele>
        <time>2022-01-29T15:35:19</time>
        <name>WPT 429</name>
        <desc />
      </trkpt>
      <trkpt lat="52.9361300915" lon="1.2342034746">
        <ele>104.81</ele>
        <time>2022-01-29T15:36:19</time>
        <name>WPT 430</name>
        <desc />
      </trkpt>
      <trkpt lat="52.9352780711" lon="1.2346893735">
        <ele>106.98</ele>
        <time>2022-01-29T15:37:19</time>
        <name>WPT 431</name>
        <desc />
      </trkpt>
      <trkpt lat="52.9343871586" lon="1.2348312791">
        <ele>107.7</ele>
        <time>2022-01-29T15:38:18</time>
        <name>WPT 432</name>
        <desc />
      </trkpt>
      <trkpt lat="52.9334902111" lon="1.234686356">
        <ele>112.49</ele>
        <time>2022-01-29T15:39:19</time>
        <name>WPT 433</name>
        <desc />
      </trkpt>
      <trkpt lat="52.9326569661" lon="1.2341818493">
        <ele>119.35</ele>
        <time>2022-01-29T15:40:26</time>
        <name>WPT 434</name>
        <desc />
      </trkpt>
      <trkpt lat="52.9317207914" lon="1.2342894729">
        <ele>125.43</ele>
        <time>2022-01-29T15:41:34</time>
        <name>WPT 435</name>
        <desc />
      </trkpt>
      <trkpt lat="52.9309994448" lon="1.2348527368">
        <ele>131.27</ele>
        <time>2022-01-29T15:42:40</time>
        <name>WPT 436</name>
        <desc />
      </trkpt>
      <trkpt lat="52.9306555353" lon="1.2362024747">
        <ele>133.69</ele>
        <time>2022-01-29T15:43:49</time>
        <name>WPT 437</name>
        <desc />
      </trkpt>
      <trkpt lat="52.9302102886" lon="1.2379025761">
        <ele>137.26</ele>
        <time>2022-01-29T15:45:17</time>
        <name>WPT 438</name>
        <desc />
      </trkpt>
      <trkpt lat="52.9289268516" lon="1.2384764012">
        <ele>150.28</ele>
        <time>2022-01-29T15:47:15</time>
        <name>WPT 439</name>
        <desc />
      </trkpt>
      <trkpt lat="52.9278940335" lon="1.2397642806">
        <ele>165.76</ele>
        <time>2022-01-29T15:49:15</time>
        <name>WPT 440</name>
        <desc />
      </trkpt>
      <trkpt lat="52.9270964116" lon="1.2412140146">
        <ele>165.59</ele>
        <time>2022-01-29T15:50:41</time>
        <name>WPT 441</name>
        <desc />
      </trkpt>
      <trkpt lat="52.926419992" lon="1.2427062448">
        <ele>166.83</ele>
        <time>2022-01-29T15:52:01</time>
        <name>WPT 442</name>
        <desc />
      </trkpt>
      <trkpt lat="52.9258576501" lon="1.2443786021">
        <ele>169.4</ele>
        <time>2022-01-29T15:53:18</time>
        <name>WPT 443</name>
        <desc />
      </trkpt>
      <trkpt lat="52.9255030118" lon="1.246108124">
        <ele>172.21</ele>
        <time>2022-01-29T15:54:35</time>
        <name>WPT 444</name>
        <desc />
      </trkpt>
      <trkpt lat="52.9252197873" lon="1.2477351353">
        <ele>173.02</ele>
        <time>2022-01-29T15:55:37</time>
        <name>WPT 445</name>
        <desc />
      </trkpt>
      <trkpt lat="52.9248935636" lon="1.2492490746">
        <ele>173.66</ele>
        <time>2022-01-29T15:56:52</time>
        <name>WPT 446</name>
        <desc />
      </trkpt>
      <trkpt lat="52.9250306915" lon="1.2508330029">
        <ele>167.62</ele>
        <time>2022-01-29T15:58:18</time>
        <name>WPT 447</name>
        <desc />
      </trkpt>
      <trkpt lat="52.926478833" lon="1.252031615">
        <ele>152.39</ele>
        <time>2022-01-29T16:00:19</time>
        <name>WPT 448</name>
        <desc />
      </trkpt>
      <trkpt lat="52.9275699891" lon="1.2508765887">
        <ele>142.75</ele>
        <time>2022-01-29T16:01:49</time>
        <name>WPT 449</name>
        <desc />
      </trkpt>
      <trkpt lat="52.9290059768" lon="1.2518136017">
        <ele>134.18</ele>
        <time>2022-01-29T16:03:44</time>
        <name>WPT 450</name>
        <desc />
      </trkpt>
      <trkpt lat="52.9293559212" lon="1.2537284475">
        <ele>129.22</ele>
        <time>2022-01-29T16:05:07</time>
        <name>WPT 451</name>
        <desc />
      </trkpt>
      <trkpt lat="52.9292844236" lon="1.2560580298">
        <ele>121.24</ele>
        <time>2022-01-29T16:06:40</time>
        <name>WPT 452</name>
        <desc />
      </trkpt>
      <trkpt lat="52.9292312823" lon="1.2578372564">
        <ele>116.78</ele>
        <time>2022-01-29T16:07:54</time>
        <name>WPT 453</name>
        <desc />
      </trkpt>
      <trkpt lat="52.9291399196" lon="1.260071788">
        <ele>115</ele>
        <time>2022-01-29T16:09:32</time>
        <name>WPT 454</name>
        <desc />
      </trkpt>
      <trkpt lat="52.928843284" lon="1.2619859632">
        <ele>106.37</ele>
        <time>2022-01-29T16:10:52</time>
        <name>WPT 455</name>
        <desc />
      </trkpt>
      <trkpt lat="52.9287457187" lon="1.2635172531">
        <ele>104.63</ele>
        <time>2022-01-29T16:12:08</time>
        <name>WPT 456</name>
        <desc />
      </trkpt>
      <trkpt lat="52.9280755855" lon="1.2646291964">
        <ele>106.86</ele>
        <time>2022-01-29T16:13:24</time>
        <name>WPT 457</name>
        <desc />
      </trkpt>
      <trkpt lat="52.9271725193" lon="1.2657106295">
        <ele>112.81</ele>
        <time>2022-01-29T16:14:47</time>
        <name>WPT 458</name>
        <desc />
      </trkpt>
      <trkpt lat="52.9278237931" lon="1.2669083197">
        <ele>106.97</ele>
        <time>2022-01-29T16:16:20</time>
        <name>WPT 459</name>
        <desc />
      </trkpt>
      <trkpt lat="52.9278034251" lon="1.2686520908">
        <ele>103.92</ele>
        <time>2022-01-29T16:17:20</time>
        <name>WPT 460</name>
        <desc />
      </trkpt>
      <trkpt lat="52.9277401417" lon="1.2701465003">
        <ele>102.47</ele>
        <time>2022-01-29T16:18:19</time>
        <name>WPT 461</name>
        <desc />
      </trkpt>
      <trkpt lat="52.9275870044" lon="1.2715948094">
        <ele>105.37</ele>
        <time>2022-01-29T16:19:21</time>
        <name>WPT 462</name>
        <desc />
      </trkpt>
      <trkpt lat="52.9274549894" lon="1.273066923">
        <ele>110.21</ele>
        <time>2022-01-29T16:20:24</time>
        <name>WPT 463</name>
        <desc />
      </trkpt>
      <trkpt lat="52.927285172" lon="1.2745851371">
        <ele>113.93</ele>
        <time>2022-01-29T16:21:28</time>
        <name>WPT 464</name>
        <desc />
      </trkpt>
      <trkpt lat="52.9273686558" lon="1.276057167">
        <ele>118.07</ele>
        <time>2022-01-29T16:22:33</time>
        <name>WPT 465</name>
        <desc />
      </trkpt>
      <trkpt lat="52.9277758487" lon="1.2775493972">
        <ele>124.18</ele>
        <time>2022-01-29T16:23:43</time>
        <name>WPT 466</name>
        <desc />
      </trkpt>
      <trkpt lat="52.9282934312" lon="1.2793731317">
        <ele>115.83</ele>
        <time>2022-01-29T16:25:02</time>
        <name>WPT 467</name>
        <desc />
      </trkpt>
      <trkpt lat="52.9288369976" lon="1.2807726581">
        <ele>114.12</ele>
        <time>2022-01-29T16:26:04</time>
        <name>WPT 468</name>
        <desc />
      </trkpt>
      <trkpt lat="52.9292607028" lon="1.2817710266">
        <ele>107.22</ele>
        <time>2022-01-29T16:27:42</time>
        <name>WPT 469</name>
        <desc />
      </trkpt>
      <trkpt lat="52.9294518102" lon="1.2832002249">
        <ele>104.95</ele>
        <time>2022-01-29T16:28:44</time>
        <name>WPT 470</name>
        <desc />
      </trkpt>
      <trkpt lat="52.9293588549" lon="1.2847207859">
        <ele>108.2</ele>
        <time>2022-01-29T16:29:45</time>
        <name>WPT 471</name>
        <desc />
      </trkpt>
      <trkpt lat="52.929222146" lon="1.2861680891">
        <ele>107.09</ele>
        <time>2022-01-29T16:30:47</time>
        <name>WPT 472</name>
        <desc />
      </trkpt>
      <trkpt lat="52.9291269276" lon="1.2876508478">
        <ele>101.9</ele>
        <time>2022-01-29T16:31:51</time>
        <name>WPT 473</name>
        <desc />
      </trkpt>
      <trkpt lat="52.9290986806" lon="1.2892263941">
        <ele>99.73</ele>
        <time>2022-01-29T16:32:55</time>
        <name>WPT 474</name>
        <desc />
      </trkpt>
      <trkpt lat="52.9293824919" lon="1.2906550895">
        <ele>98.65</ele>
        <time>2022-01-29T16:34:00</time>
        <name>WPT 475</name>
        <desc />
      </trkpt>
      <trkpt lat="52.929661274" lon="1.2920529395">
        <ele>93.5</ele>
        <time>2022-01-29T16:35:03</time>
        <name>WPT 476</name>
        <desc />
      </trkpt>
      <trkpt lat="52.9300547205" lon="1.2937285658">
        <ele>89.56</ele>
        <time>2022-01-29T16:36:12</time>
        <name>WPT 477</name>
        <desc />
      </trkpt>
      <trkpt lat="52.9303241987" lon="1.2952016015">
        <ele>85.13</ele>
        <time>2022-01-29T16:37:18</time>
        <name>WPT 478</name>
        <desc />
      </trkpt>
      <trkpt lat="52.9306194931" lon="1.2968542613">
        <ele>80.26</ele>
        <time>2022-01-29T16:38:38</time>
        <name>WPT 479</name>
        <desc />
      </trkpt>
      <trkpt lat="52.9312923085" lon="1.2984055001">
        <ele>78.44</ele>
        <time>2022-01-29T16:39:54</time>
        <name>WPT 480</name>
        <desc />
      </trkpt>
      <trkpt lat="52.9313370679" lon="1.2989835162">
        <ele>77.52</ele>
        <time>2022-01-29T16:41:08</time>
        <name>WPT 481</name>
        <desc />
      </trkpt>
      <trkpt lat="52.9313101619" lon="1.2990291137">
        <ele>78.9</ele>
        <time>2022-01-29T16:43:08</time>
        <name>WPT 482</name>
        <desc />
      </trkpt>
      <trkpt lat="52.9320613481" lon="1.2998118158">
        <ele>79.56</ele>
        <time>2022-01-29T16:45:36</time>
        <name>WPT 483</name>
        <desc />
      </trkpt>
      <trkpt lat="52.9314595275" lon="1.3006800134">
        <ele>80.91</ele>
        <time>2022-01-29T16:48:32</time>
        <name>WPT 484</name>
        <desc />
      </trkpt>
      <trkpt lat="52.9307281226" lon="1.3000468444">
        <ele>80.19</ele>
        <time>2022-01-29T16:52:46</time>
        <name>WPT 485</name>
        <desc />
      </trkpt>
      <trkpt lat="52.9320720769" lon="1.2998482771">
        <ele>78.42</ele>
        <time>2022-01-29T16:56:26</time>
        <name>WPT 486</name>
        <desc />
      </trkpt>
      <trkpt lat="52.9312585294" lon="1.2989613879">
        <ele>75.44</ele>
        <time>2022-01-29T17:07:19</time>
        <name>WPT 487</name>
        <desc />
      </trkpt>
      <trkpt lat="52.9314417578" lon="1.2987720408">
        <ele>-40.03</ele>
        <time>2022-01-29T17:09:18</time>
        <name>WPT 488</name>
        <desc />
      </trkpt>
      <trkpt lat="52.9315253254" lon="1.300791325">
        <ele>-39.76</ele>
        <time>2022-01-29T17:10:57</time>
        <name>WPT 489</name>
        <desc />
      </trkpt>
      <trkpt lat="52.9314536601" lon="1.3025943562">
        <ele>-39.19</ele>
        <time>2022-01-29T17:12:17</time>
        <name>WPT 490</name>
        <desc />
      </trkpt>
      <trkpt lat="52.9307008814" lon="1.3031207398">
        <ele>-41.25</ele>
        <time>2022-01-29T17:13:48</time>
        <name>WPT 491</name>
        <desc />
      </trkpt>
      <trkpt lat="52.9307661764" lon="1.3045078609">
        <ele>-38.64</ele>
        <time>2022-01-29T17:14:58</time>
        <name>WPT 492</name>
        <desc />
      </trkpt>
      <trkpt lat="52.9303951096" lon="1.3058801461">
        <ele>-39.17</ele>
        <time>2022-01-29T17:16:03</time>
        <name>WPT 493</name>
        <desc />
      </trkpt>
      <trkpt lat="52.9299258068" lon="1.3072592206">
        <ele>-32.94</ele>
        <time>2022-01-29T17:17:12</time>
        <name>WPT 494</name>
        <desc />
      </trkpt>
      <trkpt lat="52.9294702504" lon="1.3087079488">
        <ele>-24.86</ele>
        <time>2022-01-29T17:18:23</time>
        <name>WPT 495</name>
        <desc />
      </trkpt>
      <trkpt lat="52.9291268438" lon="1.3102053758">
        <ele>-22.81</ele>
        <time>2022-01-29T17:19:29</time>
        <name>WPT 496</name>
        <desc />
      </trkpt>
      <trkpt lat="52.9285968561" lon="1.3115607295">
        <ele>-17.56</ele>
        <time>2022-01-29T17:20:41</time>
        <name>WPT 497</name>
        <desc />
      </trkpt>
      <trkpt lat="52.9280170798" lon="1.3128812984">
        <ele>-11.3</ele>
        <time>2022-01-29T17:21:53</time>
        <name>WPT 498</name>
        <desc />
      </trkpt>
      <trkpt lat="52.9274480324" lon="1.3141768053">
        <ele>-7.71</ele>
        <time>2022-01-29T17:23:12</time>
        <name>WPT 499</name>
        <desc />
      </trkpt>
      <trkpt lat="52.9266986065" lon="1.3152073603">
        <ele>-5.04</ele>
        <time>2022-01-29T17:24:27</time>
        <name>WPT 500</name>
        <desc />
      </trkpt>
      <trkpt lat="52.9258574825" lon="1.3161163777">
        <ele>-5.67</ele>
        <time>2022-01-29T17:25:40</time>
        <name>WPT 501</name>
        <desc />
      </trkpt>
      <trkpt lat="52.9251767043" lon="1.3174452446">
        <ele>6.92</ele>
        <time>2022-01-29T17:27:00</time>
        <name>WPT 502</name>
        <desc />
      </trkpt>
      <trkpt lat="52.9250658955" lon="1.3187843375">
        <ele>17.88</ele>
        <time>2022-01-29T17:28:33</time>
        <name>WPT 503</name>
        <desc />
      </trkpt>
      <trkpt lat="52.9247167055" lon="1.3201468159">
        <ele>16.74</ele>
        <time>2022-01-29T17:29:36</time>
        <name>WPT 504</name>
        <desc />
      </trkpt>
      <trkpt lat="52.9242400266" lon="1.3214179315">
        <ele>12.87</ele>
        <time>2022-01-29T17:30:45</time>
        <name>WPT 505</name>
        <desc />
      </trkpt>
      <trkpt lat="52.9236630164" lon="1.3226517476">
        <ele>14.45</ele>
        <time>2022-01-29T17:31:54</time>
        <name>WPT 506</name>
        <desc />
      </trkpt>
      <trkpt lat="52.9233092163" lon="1.3240238652">
        <ele>12.13</ele>
        <time>2022-01-29T17:33:05</time>
        <name>WPT 507</name>
        <desc />
      </trkpt>
      <trkpt lat="52.9232653789" lon="1.3254542369">
        <ele>-1.25</ele>
        <time>2022-01-29T17:34:15</time>
        <name>WPT 508</name>
        <desc />
      </trkpt>
      <trkpt lat="52.9229858425" lon="1.3268157095">
        <ele>-6.3</ele>
        <time>2022-01-29T17:35:44</time>
        <name>WPT 509</name>
        <desc />
      </trkpt>
      <trkpt lat="52.9225162044" lon="1.3281289022">
        <ele>-1.5</ele>
        <time>2022-01-29T17:37:01</time>
        <name>WPT 510</name>
        <desc />
      </trkpt>
      <trkpt lat="52.9223571159" lon="1.329610236">
        <ele>-9.13</ele>
        <time>2022-01-29T17:38:08</time>
        <name>WPT 511</name>
        <desc />
      </trkpt>
      <trkpt lat="52.9220492486" lon="1.3310589641">
        <ele>-17.08</ele>
        <time>2022-01-29T17:39:17</time>
        <name>WPT 512</name>
        <desc />
      </trkpt>
      <trkpt lat="52.9218666907" lon="1.3324878272">
        <ele>-20.06</ele>
        <time>2022-01-29T17:40:21</time>
        <name>WPT 513</name>
        <desc />
      </trkpt>
      <trkpt lat="52.9216450732" lon="1.3338975795">
        <ele>-25.29</ele>
        <time>2022-01-29T17:41:24</time>
        <name>WPT 514</name>
        <desc />
      </trkpt>
      <trkpt lat="52.9213760141" lon="1.3352898136">
        <ele>-31.56</ele>
        <time>2022-01-29T17:42:29</time>
        <name>WPT 515</name>
        <desc />
      </trkpt>
      <trkpt lat="52.9210223816" lon="1.3366238773">
        <ele>-32.55</ele>
        <time>2022-01-29T17:43:35</time>
        <name>WPT 516</name>
        <desc />
      </trkpt>
      <trkpt lat="52.920665564" lon="1.3379877806">
        <ele>-34.45</ele>
        <time>2022-01-29T17:44:52</time>
        <name>WPT 517</name>
        <desc />
      </trkpt>
      <trkpt lat="52.9203260131" lon="1.3394813519">
        <ele>-35.8</ele>
        <time>2022-01-29T17:46:01</time>
        <name>WPT 518</name>
        <desc />
      </trkpt>
      <trkpt lat="52.9199873004" lon="1.3410501927">
        <ele>-35.82</ele>
        <time>2022-01-29T17:47:23</time>
        <name>WPT 519</name>
        <desc />
      </trkpt>
      <trkpt lat="52.9198682774" lon="1.3417405263">
        <ele>-37.23</ele>
        <time>2022-01-29T17:58:56</time>
        <name>WPT 520</name>
        <desc />
      </trkpt>
      <trkpt lat="52.9195499327" lon="1.3429528009">
        <ele>-40.48</ele>
        <time>2022-01-29T18:01:09</time>
        <name>WPT 521</name>
        <desc />
      </trkpt>
      <trkpt lat="52.918490544" lon="1.3432865683">
        <ele>-39.71</ele>
        <time>2022-01-29T18:02:27</time>
        <name>WPT 522</name>
        <desc />
      </trkpt>
      <trkpt lat="52.9174110387" lon="1.3431128953">
        <ele>-36.3</ele>
        <time>2022-01-29T18:03:44</time>
        <name>WPT 523</name>
        <desc />
      </trkpt>
      <trkpt lat="52.9169636965" lon="1.3446964882">
        <ele>-35.37</ele>
        <time>2022-01-29T18:05:16</time>
        <name>WPT 524</name>
        <desc />
      </trkpt>
      <trkpt lat="52.9163857643" lon="1.3459540252">
        <ele>-32.12</ele>
        <time>2022-01-29T18:06:43</time>
        <name>WPT 525</name>
        <desc />
      </trkpt>
      <trkpt lat="52.9152443167" lon="1.3451688085">
        <ele>-26.15</ele>
        <time>2022-01-29T18:08:13</time>
        <name>WPT 526</name>
        <desc />
      </trkpt>
      <trkpt lat="52.9142471217" lon="1.3461846951">
        <ele>-22.55</ele>
        <time>2022-01-29T18:10:01</time>
        <name>WPT 527</name>
        <desc />
      </trkpt>
      <trkpt lat="52.9136007093" lon="1.3480242714">
        <ele>-26.83</ele>
        <time>2022-01-29T18:11:27</time>
        <name>WPT 528</name>
        <desc />
      </trkpt>
      <trkpt lat="52.9128607549" lon="1.3496407215">
        <ele>-27.92</ele>
        <time>2022-01-29T18:12:54</time>
        <name>WPT 529</name>
        <desc />
      </trkpt>
      <trkpt lat="52.9122060444" lon="1.3502340764">
        <ele>-24.26</ele>
        <time>2022-01-29T18:14:21</time>
        <name>WPT 530</name>
        <desc />
      </trkpt>
      <trkpt lat="52.9111043271" lon="1.3495030068">
        <ele>-16.3</ele>
        <time>2022-01-29T18:15:58</time>
        <name>WPT 531</name>
        <desc />
      </trkpt>
      <trkpt lat="52.9098203033" lon="1.3491456863">
        <ele>-2.45</ele>
        <time>2022-01-29T18:17:46</time>
        <name>WPT 532</name>
        <desc />
      </trkpt>
      <trkpt lat="52.908822773" lon="1.3492003363">
        <ele>-4.44</ele>
        <time>2022-01-29T18:18:50</time>
        <name>WPT 533</name>
        <desc />
      </trkpt>
      <trkpt lat="52.9078560043" lon="1.3496384583">
        <ele>-6.13</ele>
        <time>2022-01-29T18:19:58</time>
        <name>WPT 534</name>
        <desc />
      </trkpt>
      <trkpt lat="52.9068356752" lon="1.3498651888">
        <ele>-6.28</ele>
        <time>2022-01-29T18:21:09</time>
        <name>WPT 535</name>
        <desc />
      </trkpt>
      <trkpt lat="52.9056923836" lon="1.3497414719">
        <ele>-4.89</ele>
        <time>2022-01-29T18:22:26</time>
        <name>WPT 536</name>
        <desc />
      </trkpt>
      <trkpt lat="52.9049209133" lon="1.3500698749">
        <ele>-7.37</ele>
        <time>2022-01-29T18:23:44</time>
        <name>WPT 537</name>
        <desc />
      </trkpt>
      <trkpt lat="52.9038730916" lon="1.3503054064">
        <ele>-13</ele>
        <time>2022-01-29T18:25:10</time>
        <name>WPT 538</name>
        <desc />
      </trkpt>
      <trkpt lat="52.9026376829" lon="1.3502948452">
        <ele>-14.1</ele>
        <time>2022-01-29T18:26:56</time>
        <name>WPT 539</name>
        <desc />
      </trkpt>
      <trkpt lat="52.9014432617" lon="1.350193508">
        <ele>-15.62</ele>
        <time>2022-01-29T18:28:35</time>
        <name>WPT 540</name>
        <desc />
      </trkpt>
      <trkpt lat="52.9004821926" lon="1.3495415635">
        <ele>-16.33</ele>
        <time>2022-01-29T18:29:44</time>
        <name>WPT 541</name>
        <desc />
      </trkpt>
      <trkpt lat="52.8997313417" lon="1.3481686916">
        <ele>-12.38</ele>
        <time>2022-01-29T18:31:06</time>
        <name>WPT 542</name>
        <desc />
      </trkpt>
      <trkpt lat="52.8991952352" lon="1.3465747889">
        <ele>-12.38</ele>
        <time>2022-01-29T18:32:23</time>
        <name>WPT 543</name>
        <desc />
      </trkpt>
      <trkpt lat="52.89862887" lon="1.3443224877">
        <ele>-24.24</ele>
        <time>2022-01-29T18:34:34</time>
        <name>WPT 544</name>
        <desc />
      </trkpt>
      <trkpt lat="52.8977943677" lon="1.3416460622">
        <ele>-34.33</ele>
        <time>2022-01-29T18:36:47</time>
        <name>WPT 545</name>
        <desc />
      </trkpt>
      <trkpt lat="52.8971334547" lon="1.3405846618">
        <ele>-35.1</ele>
        <time>2022-01-29T18:38:19</time>
        <name>WPT 546</name>
        <desc />
      </trkpt>
      <trkpt lat="52.8961920831" lon="1.3402437698">
        <ele>-30.26</ele>
        <time>2022-01-29T18:39:42</time>
        <name>WPT 547</name>
        <desc />
      </trkpt>
      <trkpt lat="52.8956584074" lon="1.3419786561">
        <ele>-31.51</ele>
        <time>2022-01-29T18:41:10</time>
        <name>WPT 548</name>
        <desc />
      </trkpt>
      <trkpt lat="52.8952881787" lon="1.343627125">
        <ele>-32.42</ele>
        <time>2022-01-29T18:42:20</time>
        <name>WPT 549</name>
        <desc />
      </trkpt>
      <trkpt lat="52.8946934827" lon="1.344940234">
        <ele>-35.46</ele>
        <time>2022-01-29T18:43:33</time>
        <name>WPT 550</name>
        <desc />
      </trkpt>
      <trkpt lat="52.8938977048" lon="1.3464393374">
        <ele>-34.52</ele>
        <time>2022-01-29T18:44:51</time>
        <name>WPT 551</name>
        <desc />
      </trkpt>
      <trkpt lat="52.8930587601" lon="1.3474925235">
        <ele>-30.91</ele>
        <time>2022-01-29T18:46:02</time>
        <name>WPT 552</name>
        <desc />
      </trkpt>
      <trkpt lat="52.8924011998" lon="1.3488098234">
        <ele>-30.6</ele>
        <time>2022-01-29T18:47:10</time>
        <name>WPT 553</name>
        <desc />
      </trkpt>
      <trkpt lat="52.891787393" lon="1.3500988763">
        <ele>-29.54</ele>
        <time>2022-01-29T18:48:14</time>
        <name>WPT 554</name>
        <desc />
      </trkpt>
      <trkpt lat="52.8911305033" lon="1.3513696566">
        <ele>-24.53</ele>
        <time>2022-01-29T18:49:26</time>
        <name>WPT 555</name>
        <desc />
      </trkpt>
      <trkpt lat="52.8908224683" lon="1.3529640622">
        <ele>-24.2</ele>
        <time>2022-01-29T18:50:34</time>
        <name>WPT 556</name>
        <desc />
      </trkpt>
      <trkpt lat="52.8901864495" lon="1.3542315736">
        <ele>-28.38</ele>
        <time>2022-01-29T18:51:38</time>
        <name>WPT 557</name>
        <desc />
      </trkpt>
      <trkpt lat="52.8893133905" lon="1.3550105039">
        <ele>-33.55</ele>
        <time>2022-01-29T18:52:48</time>
        <name>WPT 558</name>
        <desc />
      </trkpt>
      <trkpt lat="52.8883000184" lon="1.3555606082">
        <ele>-30.94</ele>
        <time>2022-01-29T18:54:09</time>
        <name>WPT 559</name>
        <desc />
      </trkpt>
      <trkpt lat="52.8872778453" lon="1.3563692104">
        <ele>-28.43</ele>
        <time>2022-01-29T18:55:21</time>
        <name>WPT 560</name>
        <desc />
      </trkpt>
      <trkpt lat="52.8866101429" lon="1.3575682417">
        <ele>-28.04</ele>
        <time>2022-01-29T18:56:26</time>
        <name>WPT 561</name>
        <desc />
      </trkpt>
      <trkpt lat="52.8860242479" lon="1.3589734677">
        <ele>-28.88</ele>
        <time>2022-01-29T18:57:36</time>
        <name>WPT 562</name>
        <desc />
      </trkpt>
      <trkpt lat="52.885299297" lon="1.3589906506">
        <ele>-28.02</ele>
        <time>2022-01-29T18:58:47</time>
        <name>WPT 563</name>
        <desc />
      </trkpt>
      <trkpt lat="52.8843914531" lon="1.3581246324">
        <ele>-28.85</ele>
        <time>2022-01-29T19:00:02</time>
        <name>WPT 564</name>
        <desc />
      </trkpt>
      <trkpt lat="52.8833078407" lon="1.3566158898">
        <ele>-31.43</ele>
        <time>2022-01-29T19:01:36</time>
        <name>WPT 565</name>
        <desc />
      </trkpt>
      <trkpt lat="52.8823524714" lon="1.355410153">
        <ele>-31.54</ele>
        <time>2022-01-29T19:02:50</time>
        <name>WPT 566</name>
        <desc />
      </trkpt>
      <trkpt lat="52.8816246707" lon="1.3539234549">
        <ele>-32.51</ele>
        <time>2022-01-29T19:04:09</time>
        <name>WPT 567</name>
        <desc />
      </trkpt>
      <trkpt lat="52.8812894784" lon="1.3525230903">
        <ele>-31.18</ele>
        <time>2022-01-29T19:05:44</time>
        <name>WPT 568</name>
        <desc />
      </trkpt>
      <trkpt lat="52.8810392786" lon="1.3523753174">
        <ele>-35.32</ele>
        <time>2022-01-29T19:17:36</time>
        <name>WPT 569</name>
        <desc />
      </trkpt>
      <trkpt lat="52.8801843245" lon="1.3521368522">
        <ele>-36.87</ele>
        <time>2022-01-29T19:20:23</time>
        <name>WPT 570</name>
        <desc />
      </trkpt>
      <trkpt lat="52.8790730517" lon="1.3520049211">
        <ele>-39.78</ele>
        <time>2022-01-29T19:21:53</time>
        <name>WPT 571</name>
        <desc />
      </trkpt>
      <trkpt lat="52.8779404052" lon="1.35308275">
        <ele>-43.72</ele>
        <time>2022-01-29T19:23:29</time>
        <name>WPT 572</name>
        <desc />
      </trkpt>
      <trkpt lat="52.8767652623" lon="1.3538726605">
        <ele>-44.84</ele>
        <time>2022-01-29T19:25:05</time>
        <name>WPT 573</name>
        <desc />
      </trkpt>
      <trkpt lat="52.8756870981" lon="1.3540439866">
        <ele>-43.43</ele>
        <time>2022-01-29T19:26:18</time>
        <name>WPT 574</name>
        <desc />
      </trkpt>
      <trkpt lat="52.8747091815" lon="1.3542423863">
        <ele>-43.23</ele>
        <time>2022-01-29T19:27:28</time>
        <name>WPT 575</name>
        <desc />
      </trkpt>
      <trkpt lat="52.8737367969" lon="1.3544603996">
        <ele>-44.89</ele>
        <time>2022-01-29T19:28:37</time>
        <name>WPT 576</name>
        <desc />
      </trkpt>
      <trkpt lat="52.8727939166" lon="1.3547403552">
        <ele>-48.72</ele>
        <time>2022-01-29T19:29:46</time>
        <name>WPT 577</name>
        <desc />
      </trkpt>
      <trkpt lat="52.871753471" lon="1.3546660077">
        <ele>-51.09</ele>
        <time>2022-01-29T19:31:00</time>
        <name>WPT 578</name>
        <desc />
      </trkpt>
      <trkpt lat="52.8708258457" lon="1.3544813544">
        <ele>-51.14</ele>
        <time>2022-01-29T19:32:04</time>
        <name>WPT 579</name>
        <desc />
      </trkpt>
      <trkpt lat="52.8696056921" lon="1.3540426455">
        <ele>-51.34</ele>
        <time>2022-01-29T19:33:43</time>
        <name>WPT 580</name>
        <desc />
      </trkpt>
      <trkpt lat="52.8681735601" lon="1.3527283631">
        <ele>-54.87</ele>
        <time>2022-01-29T19:35:36</time>
        <name>WPT 581</name>
        <desc />
      </trkpt>
      <trkpt lat="52.8671326954" lon="1.3537792861">
        <ele>-53.62</ele>
        <time>2022-01-29T19:37:11</time>
        <name>WPT 582</name>
        <desc />
      </trkpt>
      <trkpt lat="52.865969874" lon="1.3551749568">
        <ele>-54.75</ele>
        <time>2022-01-29T19:38:51</time>
        <name>WPT 583</name>
        <desc />
      </trkpt>
      <trkpt lat="52.8651626129" lon="1.3563492615">
        <ele>-56.07</ele>
        <time>2022-01-29T19:39:58</time>
        <name>WPT 584</name>
        <desc />
      </trkpt>
      <trkpt lat="52.8642847762" lon="1.3574344665">
        <ele>-55.59</ele>
        <time>2022-01-29T19:41:14</time>
        <name>WPT 585</name>
        <desc />
      </trkpt>
      <trkpt lat="52.8635615855" lon="1.3586497586">
        <ele>-55.06</ele>
        <time>2022-01-29T19:42:23</time>
        <name>WPT 586</name>
        <desc />
      </trkpt>
      <trkpt lat="52.8626858443" lon="1.3598311879">
        <ele>-55.34</ele>
        <time>2022-01-29T19:43:42</time>
        <name>WPT 587</name>
        <desc />
      </trkpt>
      <trkpt lat="52.8617582191" lon="1.3601629436">
        <ele>-53.71</ele>
        <time>2022-01-29T19:45:06</time>
        <name>WPT 588</name>
        <desc />
      </trkpt>
      <trkpt lat="52.8607936297" lon="1.3595510647">
        <ele>-53.15</ele>
        <time>2022-01-29T19:46:12</time>
        <name>WPT 589</name>
        <desc />
      </trkpt>
      <trkpt lat="52.8597917408" lon="1.3589028083">
        <ele>-51.44</ele>
        <time>2022-01-29T19:47:27</time>
        <name>WPT 590</name>
        <desc />
      </trkpt>
      <trkpt lat="52.8589066956" lon="1.3582428172">
        <ele>-51.8</ele>
        <time>2022-01-29T19:48:35</time>
        <name>WPT 591</name>
        <desc />
      </trkpt>
      <trkpt lat="52.8584661428" lon="1.3568758126">
        <ele>-52.72</ele>
        <time>2022-01-29T19:49:38</time>
        <name>WPT 592</name>
        <desc />
      </trkpt>
      <trkpt lat="52.8575037327" lon="1.3567295484">
        <ele>-54.39</ele>
        <time>2022-01-29T19:50:46</time>
        <name>WPT 593</name>
        <desc />
      </trkpt>
      <trkpt lat="52.8563562501" lon="1.3566750661">
        <ele>-55.9</ele>
        <time>2022-01-29T19:52:04</time>
        <name>WPT 594</name>
        <desc />
      </trkpt>
      <trkpt lat="52.8552912455" lon="1.3563791849">
        <ele>-55.69</ele>
        <time>2022-01-29T19:53:15</time>
        <name>WPT 595</name>
        <desc />
      </trkpt>
      <trkpt lat="52.8547320049" lon="1.3553132582">
        <ele>-56.8</ele>
        <time>2022-01-29T19:54:42</time>
        <name>WPT 596</name>
        <desc />
      </trkpt>
      <trkpt lat="52.8550086077" lon="1.353480136">
        <ele>-59.46</ele>
        <time>2022-01-29T19:55:57</time>
        <name>WPT 597</name>
        <desc />
      </trkpt>
      <trkpt lat="52.8546858206" lon="1.3524579629">
        <ele>-58.43</ele>
        <time>2022-01-29T19:57:11</time>
        <name>WPT 598</name>
        <desc />
      </trkpt>
      <trkpt lat="52.8536940739" lon="1.3521482516">
        <ele>-57.88</ele>
        <time>2022-01-29T19:58:16</time>
        <name>WPT 599</name>
        <desc />
      </trkpt>
      <trkpt lat="52.8528008144" lon="1.3514264859">
        <ele>-58.17</ele>
        <time>2022-01-29T19:59:25</time>
        <name>WPT 600</name>
        <desc />
      </trkpt>
      <trkpt lat="52.8517801501" lon="1.3514706586">
        <ele>-58.81</ele>
        <time>2022-01-29T20:00:37</time>
        <name>WPT 601</name>
        <desc />
      </trkpt>
      <trkpt lat="52.85080567" lon="1.3517896738">
        <ele>-61.36</ele>
        <time>2022-01-29T20:01:47</time>
        <name>WPT 602</name>
        <desc />
      </trkpt>
      <trkpt lat="52.8497834131" lon="1.3520748261">
        <ele>-58.17</ele>
        <time>2022-01-29T20:03:03</time>
        <name>WPT 603</name>
        <desc />
      </trkpt>
      <trkpt lat="52.8487915825" lon="1.3524081744">
        <ele>-59.37</ele>
        <time>2022-01-29T20:04:07</time>
        <name>WPT 604</name>
        <desc />
      </trkpt>
      <trkpt lat="52.847787682" lon="1.352800699">
        <ele>-61.4</ele>
        <time>2022-01-29T20:05:20</time>
        <name>WPT 605</name>
        <desc />
      </trkpt>
      <trkpt lat="52.84690951" lon="1.3533187006">
        <ele>-65.02</ele>
        <time>2022-01-29T20:06:25</time>
        <name>WPT 606</name>
        <desc />
      </trkpt>
      <trkpt lat="52.8460707329" lon="1.3537595049">
        <ele>-62.61</ele>
        <time>2022-01-29T20:07:30</time>
        <name>WPT 607</name>
        <desc />
      </trkpt>
      <trkpt lat="52.8454707563" lon="1.3545232639">
        <ele>-62.54</ele>
        <time>2022-01-29T20:08:37</time>
        <name>WPT 608</name>
        <desc />
      </trkpt>
      <trkpt lat="52.8460528795" lon="1.3565436378">
        <ele>-66.21</ele>
        <time>2022-01-29T20:10:08</time>
        <name>WPT 609</name>
        <desc />
      </trkpt>
      <trkpt lat="52.8459641151" lon="1.3581570704">
        <ele>-66.3</ele>
        <time>2022-01-29T20:11:45</time>
        <name>WPT 610</name>
        <desc />
      </trkpt>
      <trkpt lat="52.844989216" lon="1.3588598929">
        <ele>-65.32</ele>
        <time>2022-01-29T20:12:56</time>
        <name>WPT 611</name>
        <desc />
      </trkpt>
      <trkpt lat="52.8440719005" lon="1.3600444235">
        <ele>-66.11</ele>
        <time>2022-01-29T20:14:14</time>
        <name>WPT 612</name>
        <desc />
      </trkpt>
      <trkpt lat="52.8432404157" lon="1.3616452832">
        <ele>-68.48</ele>
        <time>2022-01-29T20:15:36</time>
        <name>WPT 613</name>
        <desc />
      </trkpt>
      <trkpt lat="52.8419555537" lon="1.3620128296">
        <ele>-69.1</ele>
        <time>2022-01-29T20:17:06</time>
        <name>WPT 614</name>
        <desc />
      </trkpt>
      <trkpt lat="52.8410195466" lon="1.3618085627">
        <ele>-72.06</ele>
        <time>2022-01-29T20:18:26</time>
        <name>WPT 615</name>
        <desc />
      </trkpt>
      <trkpt lat="52.8403648362" lon="1.3608435541">
        <ele>-68.42</ele>
        <time>2022-01-29T20:19:44</time>
        <name>WPT 616</name>
        <desc />
      </trkpt>
      <trkpt lat="52.8397410549" lon="1.3620334491">
        <ele>-67.42</ele>
        <time>2022-01-29T20:20:44</time>
        <name>WPT 617</name>
        <desc />
      </trkpt>
      <trkpt lat="52.8390623722" lon="1.3630527724">
        <ele>-68.2</ele>
        <time>2022-01-29T20:21:43</time>
        <name>WPT 618</name>
        <desc />
      </trkpt>
      <trkpt lat="52.8384221625" lon="1.3641622849">
        <ele>-67.55</ele>
        <time>2022-01-29T20:22:44</time>
        <name>WPT 619</name>
        <desc />
      </trkpt>
      <trkpt lat="52.8376940265" lon="1.3650814444">
        <ele>-67.18</ele>
        <time>2022-01-29T20:23:46</time>
        <name>WPT 620</name>
        <desc />
      </trkpt>
      <trkpt lat="52.8367528226" lon="1.3654898945">
        <ele>-67.81</ele>
        <time>2022-01-29T20:24:53</time>
        <name>WPT 621</name>
        <desc />
      </trkpt>
      <trkpt lat="52.8358388599" lon="1.366179809">
        <ele>-69.91</ele>
        <time>2022-01-29T20:26:00</time>
        <name>WPT 622</name>
        <desc />
      </trkpt>
      <trkpt lat="52.8350141644" lon="1.3671827037">
        <ele>-69.79</ele>
        <time>2022-01-29T20:27:11</time>
        <name>WPT 623</name>
        <desc />
      </trkpt>
      <trkpt lat="52.8344202228" lon="1.3682491332">
        <ele>-66.13</ele>
        <time>2022-01-29T20:28:15</time>
        <name>WPT 624</name>
        <desc />
      </trkpt>
      <trkpt lat="52.8337785881" lon="1.3691812009">
        <ele>-63.98</ele>
        <time>2022-01-29T20:29:29</time>
        <name>WPT 625</name>
        <desc />
      </trkpt>
      <trkpt lat="52.8330670483" lon="1.3700707722">
        <ele>-64.71</ele>
        <time>2022-01-29T20:30:32</time>
        <name>WPT 626</name>
        <desc />
      </trkpt>
      <trkpt lat="52.8323393315" lon="1.3709625229">
        <ele>-58.32</ele>
        <time>2022-01-29T20:31:39</time>
        <name>WPT 627</name>
        <desc />
      </trkpt>
      <trkpt lat="52.8316697851" lon="1.3719354104">
        <ele>-57.02</ele>
        <time>2022-01-29T20:32:43</time>
        <name>WPT 628</name>
        <desc />
      </trkpt>
      <trkpt lat="52.8312029969" lon="1.3731859904">
        <ele>-57.07</ele>
        <time>2022-01-29T20:33:52</time>
        <name>WPT 629</name>
        <desc />
      </trkpt>
      <trkpt lat="52.8320530895" lon="1.3741209079">
        <ele>-58.39</ele>
        <time>2022-01-29T20:35:24</time>
        <name>WPT 630</name>
        <desc />
      </trkpt>
      <trkpt lat="52.8311345167" lon="1.3753544725">
        <ele>-63.36</ele>
        <time>2022-01-29T20:37:03</time>
        <name>WPT 631</name>
        <desc />
      </trkpt>
      <trkpt lat="52.8302915487" lon="1.3763419446">
        <ele>-65.82</ele>
        <time>2022-01-29T20:38:13</time>
        <name>WPT 632</name>
        <desc />
      </trkpt>
      <trkpt lat="52.8294968605" lon="1.3770061266">
        <ele>-68.36</ele>
        <time>2022-01-29T20:39:16</time>
        <name>WPT 633</name>
        <desc />
      </trkpt>
      <trkpt lat="52.828736119" lon="1.3778098673">
        <ele>-66.75</ele>
        <time>2022-01-29T20:40:23</time>
        <name>WPT 634</name>
        <desc />
      </trkpt>
      <trkpt lat="52.8280202206" lon="1.3787874486">
        <ele>-66.45</ele>
        <time>2022-01-29T20:41:32</time>
        <name>WPT 635</name>
        <desc />
      </trkpt>
      <trkpt lat="52.82696913" lon="1.379522793">
        <ele>-65.45</ele>
        <time>2022-01-29T20:42:54</time>
        <name>WPT 636</name>
        <desc />
      </trkpt>
      <trkpt lat="52.8263152577" lon="1.3806942478">
        <ele>-65.52</ele>
        <time>2022-01-29T20:44:07</time>
        <name>WPT 637</name>
        <desc />
      </trkpt>
      <trkpt lat="52.82524799" lon="1.3801864721">
        <ele>-66.17</ele>
        <time>2022-01-29T20:45:28</time>
        <name>WPT 638</name>
        <desc />
      </trkpt>
      <trkpt lat="52.824046528" lon="1.3795237988">
        <ele>-63.84</ele>
        <time>2022-01-29T20:46:54</time>
        <name>WPT 639</name>
        <desc />
      </trkpt>
      <trkpt lat="52.8230378497" lon="1.379536707">
        <ele>-62.83</ele>
        <time>2022-01-29T20:48:10</time>
        <name>WPT 640</name>
        <desc />
      </trkpt>
      <trkpt lat="52.8216007724" lon="1.3803730533">
        <ele>-61.88</ele>
        <time>2022-01-29T20:50:00</time>
        <name>WPT 641</name>
        <desc />
      </trkpt>
      <trkpt lat="52.8204091173" lon="1.3817831408">
        <ele>-62.23</ele>
        <time>2022-01-29T20:51:47</time>
        <name>WPT 642</name>
        <desc />
      </trkpt>
      <trkpt lat="52.8207170684" lon="1.3814046141">
        <ele>-63.15</ele>
        <time>2022-01-29T20:54:45</time>
        <name>WPT 643</name>
        <desc />
      </trkpt>
      <trkpt lat="52.8201562352" lon="1.3813668955">
        <ele>-61.54</ele>
        <time>2022-01-29T20:56:30</time>
        <name>WPT 644</name>
        <desc />
      </trkpt>
      <trkpt lat="52.8202152438" lon="1.3796537183">
        <ele>-63.01</ele>
        <time>2022-01-29T20:57:38</time>
        <name>WPT 645</name>
        <desc />
      </trkpt>
      <trkpt lat="52.8201677185" lon="1.3774189353">
        <ele>-61.73</ele>
        <time>2022-01-29T20:59:16</time>
        <name>WPT 646</name>
        <desc />
      </trkpt>
      <trkpt lat="52.81963991" lon="1.3750933763">
        <ele>-61.36</ele>
        <time>2022-01-29T21:00:56</time>
        <name>WPT 647</name>
        <desc />
      </trkpt>
      <trkpt lat="52.8189232573" lon="1.3734962884">
        <ele>-62.16</ele>
        <time>2022-01-29T21:02:15</time>
        <name>WPT 648</name>
        <desc />
      </trkpt>
      <trkpt lat="52.8182820417" lon="1.3718944229">
        <ele>-62.02</ele>
        <time>2022-01-29T21:03:37</time>
        <name>WPT 649</name>
        <desc />
      </trkpt>
      <trkpt lat="52.8176313546" lon="1.3703405857">
        <ele>-61.92</ele>
        <time>2022-01-29T21:04:53</time>
        <name>WPT 650</name>
        <desc />
      </trkpt>
      <trkpt lat="52.8168311343" lon="1.3685429189">
        <ele>-62.13</ele>
        <time>2022-01-29T21:06:28</time>
        <name>WPT 651</name>
        <desc />
      </trkpt>
      <trkpt lat="52.8160687163" lon="1.3666859921">
        <ele>-61.54</ele>
        <time>2022-01-29T21:08:02</time>
        <name>WPT 652</name>
        <desc />
      </trkpt>
      <trkpt lat="52.8153376468" lon="1.3651854638">
        <ele>-63.42</ele>
        <time>2022-01-29T21:09:20</time>
        <name>WPT 653</name>
        <desc />
      </trkpt>
      <trkpt lat="52.8145437967" lon="1.3633737154">
        <ele>-64.04</ele>
        <time>2022-01-29T21:10:59</time>
        <name>WPT 654</name>
        <desc />
      </trkpt>
      <trkpt lat="52.8137698956" lon="1.3613487314">
        <ele>-65.48</ele>
        <time>2022-01-29T21:12:42</time>
        <name>WPT 655</name>
        <desc />
      </trkpt>
      <trkpt lat="52.8128632251" lon="1.3593110908">
        <ele>-65.81</ele>
        <time>2022-01-29T21:14:29</time>
        <name>WPT 656</name>
        <desc />
      </trkpt>
      <trkpt lat="52.811789671" lon="1.3566438016">
        <ele>-67.13</ele>
        <time>2022-01-29T21:16:42</time>
        <name>WPT 657</name>
        <desc />
      </trkpt>
      <trkpt lat="52.8109022789" lon="1.3540408015">
        <ele>-67.85</ele>
        <time>2022-01-29T21:18:47</time>
        <name>WPT 658</name>
        <desc />
      </trkpt>
      <trkpt lat="52.8117248788" lon="1.3527283631">
        <ele>-73.08</ele>
        <time>2022-01-29T21:20:40</time>
        <name>WPT 659</name>
        <desc />
      </trkpt>
      <trkpt lat="52.8126507439" lon="1.3507588673">
        <ele>-75.7</ele>
        <time>2022-01-29T21:22:25</time>
        <name>WPT 660</name>
        <desc />
      </trkpt>
      <trkpt lat="52.8133944701" lon="1.3485135231">
        <ele>-71.91</ele>
        <time>2022-01-29T21:24:21</time>
        <name>WPT 661</name>
        <desc />
      </trkpt>
      <trkpt lat="52.8144678567" lon="1.3466596138">
        <ele>-76.11</ele>
        <time>2022-01-29T21:26:09</time>
        <name>WPT 662</name>
        <desc />
      </trkpt>
      <trkpt lat="52.8150771372" lon="1.3446097355">
        <ele>-76.11</ele>
        <time>2022-01-29T21:27:42</time>
        <name>WPT 663</name>
        <desc />
      </trkpt>
      <trkpt lat="52.8149440326" lon="1.343224626">
        <ele>-73.31</ele>
        <time>2022-01-29T21:28:52</time>
        <name>WPT 664</name>
        <desc />
      </trkpt>
      <trkpt lat="52.8147017956" lon="1.3419204857">
        <ele>-74.34</ele>
        <time>2022-01-29T21:29:57</time>
        <name>WPT 665</name>
        <desc />
      </trkpt>
      <trkpt lat="52.8147671744" lon="1.3404533174">
        <ele>-72.95</ele>
        <time>2022-01-29T21:30:57</time>
        <name>WPT 666</name>
        <desc />
      </trkpt>
      <trkpt lat="52.814746052" lon="1.3387066964">
        <ele>-69.31</ele>
        <time>2022-01-29T21:32:16</time>
        <name>WPT 667</name>
        <desc />
      </trkpt>
      <trkpt lat="52.8148627281" lon="1.3370239455">
        <ele>-68.67</ele>
        <time>2022-01-29T21:33:22</time>
        <name>WPT 668</name>
        <desc />
      </trkpt>
      <trkpt lat="52.8145981114" lon="1.3361767028">
        <ele>-68.79</ele>
        <time>2022-01-29T21:41:41</time>
        <name>WPT 669</name>
        <desc />
      </trkpt>
      <trkpt lat="52.8136556502" lon="1.3362408243">
        <ele>-69.23</ele>
        <time>2022-01-29T21:43:09</time>
        <name>WPT 670</name>
        <desc />
      </trkpt>
      <trkpt lat="52.8126562759" lon="1.3360188715">
        <ele>-69.32</ele>
        <time>2022-01-29T21:44:31</time>
        <name>WPT 671</name>
        <desc />
      </trkpt>
      <trkpt lat="52.8117061034" lon="1.3357496448">
        <ele>-69.93</ele>
        <time>2022-01-29T21:45:37</time>
        <name>WPT 672</name>
        <desc />
      </trkpt>
      <trkpt lat="52.8107647318" lon="1.3354853634">
        <ele>-71.73</ele>
        <time>2022-01-29T21:46:43</time>
        <name>WPT 673</name>
        <desc />
      </trkpt>
      <trkpt lat="52.810001811" lon="1.3349576388">
        <ele>-71.7</ele>
        <time>2022-01-29T21:47:50</time>
        <name>WPT 674</name>
        <desc />
      </trkpt>
      <trkpt lat="52.8090872616" lon="1.3346254639">
        <ele>-71.64</ele>
        <time>2022-01-29T21:48:55</time>
        <name>WPT 675</name>
        <desc />
      </trkpt>
      <trkpt lat="52.8083145339" lon="1.3340971526">
        <ele>-75.11</ele>
        <time>2022-01-29T21:50:29</time>
        <name>WPT 676</name>
        <desc />
      </trkpt>
      <trkpt lat="52.8082614765" lon="1.332300324">
        <ele>-76.72</ele>
        <time>2022-01-29T21:51:38</time>
        <name>WPT 677</name>
        <desc />
      </trkpt>
      <trkpt lat="52.8081313893" lon="1.3302494399">
        <ele>-78.18</ele>
        <time>2022-01-29T21:53:01</time>
        <name>WPT 678</name>
        <desc />
      </trkpt>
      <trkpt lat="52.8080939222" lon="1.328175338">
        <ele>-79.71</ele>
        <time>2022-01-29T21:54:26</time>
        <name>WPT 679</name>
        <desc />
      </trkpt>
      <trkpt lat="52.8081521764" lon="1.3260769285">
        <ele>-81.27</ele>
        <time>2022-01-29T21:55:51</time>
        <name>WPT 680</name>
        <desc />
      </trkpt>
      <trkpt lat="52.8080015536" lon="1.323952619">
        <ele>-81.73</ele>
        <time>2022-01-29T21:57:16</time>
        <name>WPT 681</name>
        <desc />
      </trkpt>
      <trkpt lat="52.8079784196" lon="1.3220862206">
        <ele>-82.54</ele>
        <time>2022-01-29T21:58:29</time>
        <name>WPT 682</name>
        <desc />
      </trkpt>
      <trkpt lat="52.8078485001" lon="1.3200537767">
        <ele>-83.56</ele>
        <time>2022-01-29T21:59:50</time>
        <name>WPT 683</name>
        <desc />
      </trkpt>
      <trkpt lat="52.8077973705" lon="1.3179243542">
        <ele>-84.33</ele>
        <time>2022-01-29T22:01:20</time>
        <name>WPT 684</name>
        <desc />
      </trkpt>
      <trkpt lat="52.8076976258" lon="1.3158935867">
        <ele>-85.95</ele>
        <time>2022-01-29T22:02:33</time>
        <name>WPT 685</name>
        <desc />
      </trkpt>
      <trkpt lat="52.8075491823" lon="1.313846726">
        <ele>-88.07</ele>
        <time>2022-01-29T22:04:00</time>
        <name>WPT 686</name>
        <desc />
      </trkpt>
      <trkpt lat="52.8071952146" lon="1.3114000484">
        <ele>-88.06</ele>
        <time>2022-01-29T22:05:44</time>
        <name>WPT 687</name>
        <desc />
      </trkpt>
      <trkpt lat="52.8068776242" lon="1.308840299">
        <ele>-88.09</ele>
        <time>2022-01-29T22:07:32</time>
        <name>WPT 688</name>
        <desc />
      </trkpt>
      <trkpt lat="52.8065503947" lon="1.3068365213">
        <ele>-86.91</ele>
        <time>2022-01-29T22:08:58</time>
        <name>WPT 689</name>
        <desc />
      </trkpt>
      <trkpt lat="52.8062017076" lon="1.3050573785">
        <ele>-85.68</ele>
        <time>2022-01-29T22:10:21</time>
        <name>WPT 690</name>
        <desc />
      </trkpt>
      <trkpt lat="52.8059557825" lon="1.3029562868">
        <ele>-84.72</ele>
        <time>2022-01-29T22:11:42</time>
        <name>WPT 691</name>
        <desc />
      </trkpt>
      <trkpt lat="52.8058182355" lon="1.3010093383">
        <ele>-83.5</ele>
        <time>2022-01-29T22:13:05</time>
        <name>WPT 692</name>
        <desc />
      </trkpt>
      <trkpt lat="52.8059178125" lon="1.2990016211">
        <ele>-83.33</ele>
        <time>2022-01-29T22:14:35</time>
        <name>WPT 693</name>
        <desc />
      </trkpt>
      <trkpt lat="52.8059450537" lon="1.296319915">
        <ele>-83.89</ele>
        <time>2022-01-29T22:16:26</time>
        <name>WPT 694</name>
        <desc />
      </trkpt>
      <trkpt lat="52.8060349077" lon="1.2937523704">
        <ele>-82.63</ele>
        <time>2022-01-29T22:18:10</time>
        <name>WPT 695</name>
        <desc />
      </trkpt>
      <trkpt lat="52.8062391747" lon="1.2911805511">
        <ele>-81.23</ele>
        <time>2022-01-29T22:20:00</time>
        <name>WPT 696</name>
        <desc />
      </trkpt>
      <trkpt lat="52.8061032202" lon="1.288858261">
        <ele>-81.74</ele>
        <time>2022-01-29T22:21:37</time>
        <name>WPT 697</name>
        <desc />
      </trkpt>
      <trkpt lat="52.8062376659" lon="1.2868931238">
        <ele>-81.79</ele>
        <time>2022-01-29T22:22:58</time>
        <name>WPT 698</name>
        <desc />
      </trkpt>
      <trkpt lat="52.8063537553" lon="1.2851025816">
        <ele>-82.4</ele>
        <time>2022-01-29T22:24:07</time>
        <name>WPT 699</name>
        <desc />
      </trkpt>
      <trkpt lat="52.8064086568" lon="1.2834254466">
        <ele>-82.95</ele>
        <time>2022-01-29T22:25:18</time>
        <name>WPT 700</name>
        <desc />
      </trkpt>
      <trkpt lat="52.8068469465" lon="1.2820924725">
        <ele>-83.81</ele>
        <time>2022-01-29T22:26:41</time>
        <name>WPT 701</name>
        <desc />
      </trkpt>
      <trkpt lat="52.8069357108" lon="1.2809645198">
        <ele>-84.94</ele>
        <time>2022-01-29T22:27:51</time>
        <name>WPT 702</name>
        <desc />
      </trkpt>
      <trkpt lat="52.8065551724" lon="1.2794421986">
        <ele>-85.21</ele>
        <time>2022-01-29T22:28:58</time>
        <name>WPT 703</name>
        <desc />
      </trkpt>
      <trkpt lat="52.8063408472" lon="1.2780076358">
        <ele>-85.68</ele>
        <time>2022-01-29T22:30:00</time>
        <name>WPT 704</name>
        <desc />
      </trkpt>
      <trkpt lat="52.8065023664" lon="1.276517082">
        <ele>-87.07</ele>
        <time>2022-01-29T22:31:04</time>
        <name>WPT 705</name>
        <desc />
      </trkpt>
      <trkpt lat="52.806783244" lon="1.27508495">
        <ele>-87.7</ele>
        <time>2022-01-29T22:32:07</time>
        <name>WPT 706</name>
        <desc />
      </trkpt>
      <trkpt lat="52.8065814078" lon="1.2736871839">
        <ele>-89.27</ele>
        <time>2022-01-29T22:33:09</time>
        <name>WPT 707</name>
        <desc />
      </trkpt>
      <trkpt lat="52.8070649598" lon="1.2722858973">
        <ele>-89.1</ele>
        <time>2022-01-29T22:34:23</time>
        <name>WPT 708</name>
        <desc />
      </trkpt>
      <trkpt lat="52.8075128887" lon="1.2707966007">
        <ele>-86.9</ele>
        <time>2022-01-29T22:35:38</time>
        <name>WPT 709</name>
        <desc />
      </trkpt>
      <trkpt lat="52.8078314848" lon="1.2696656305">
        <ele>-86.36</ele>
        <time>2022-01-29T22:37:28</time>
        <name>WPT 710</name>
        <desc />
      </trkpt>
      <trkpt lat="52.8072995692" lon="1.2683658488">
        <ele>-86.46</ele>
        <time>2022-01-29T22:38:34</time>
        <name>WPT 711</name>
        <desc />
      </trkpt>
      <trkpt lat="52.8069785424" lon="1.2668387499">
        <ele>-87.26</ele>
        <time>2022-01-29T22:39:33</time>
        <name>WPT 712</name>
        <desc />
      </trkpt>
      <trkpt lat="52.806201959" lon="1.2656434067">
        <ele>-88.04</ele>
        <time>2022-01-29T22:40:40</time>
        <name>WPT 713</name>
        <desc />
      </trkpt>
      <trkpt lat="52.8054329194" lon="1.2644485664">
        <ele>-88.88</ele>
        <time>2022-01-29T22:41:52</time>
        <name>WPT 714</name>
        <desc />
      </trkpt>
      <trkpt lat="52.8047377244" lon="1.2633365393">
        <ele>-88.82</ele>
        <time>2022-01-29T22:42:55</time>
        <name>WPT 715</name>
        <desc />
      </trkpt>
      <trkpt lat="52.8040988557" lon="1.2620026432">
        <ele>-89.63</ele>
        <time>2022-01-29T22:44:08</time>
        <name>WPT 716</name>
        <desc />
      </trkpt>
      <trkpt lat="52.8032585699" lon="1.261189431">
        <ele>-90.18</ele>
        <time>2022-01-29T22:45:09</time>
        <name>WPT 717</name>
        <desc />
      </trkpt>
      <trkpt lat="52.8023689985" lon="1.2601408549">
        <ele>-92.22</ele>
        <time>2022-01-29T22:46:25</time>
        <name>WPT 718</name>
        <desc />
      </trkpt>
      <trkpt lat="52.8008819651" lon="1.2583069783">
        <ele>-92.92</ele>
        <time>2022-01-29T22:48:13</time>
        <name>WPT 719</name>
        <desc />
      </trkpt>
      <trkpt lat="52.7995275334" lon="1.2570269778">
        <ele>-90.75</ele>
        <time>2022-01-29T22:50:03</time>
        <name>WPT 720</name>
        <desc />
      </trkpt>
      <trkpt lat="52.7981125843" lon="1.2563245744">
        <ele>-86.29</ele>
        <time>2022-01-29T22:51:40</time>
        <name>WPT 721</name>
        <desc />
      </trkpt>
      <trkpt lat="52.7967480104" lon="1.2561753765">
        <ele>-79.64</ele>
        <time>2022-01-29T22:53:21</time>
        <name>WPT 722</name>
        <desc />
      </trkpt>
      <trkpt lat="52.796398066" lon="1.2577033136">
        <ele>-78.68</ele>
        <time>2022-01-29T22:54:43</time>
        <name>WPT 723</name>
        <desc />
      </trkpt>
      <extensions>
        <drawing v="True" pv="False" pw="4" pc="255|255|255" pt="0" lv="True" lw="4" lc="255|0|0" lt="0" ls="0" lcs="3" fc="255|255|255" ft="120" fs="-1" fsc="0|0|0" xmlns="" />
      </extensions>
    </trkseg>
  </trk>
</gpx>